DL5703 / N624CZ 7700 Squawk Report (7th of October, 2019)

Aircraft E75S Reg No. N624CZ Age N/A
Model Emb-175 Jet engines 2 First flight 05-08
Registered 31-01-10 Rollout 05-08 Delivered 02-06-08
Construction No. 17000222 Line No. N/A Series 200LR
ADSHEX A82563 Airline name Delta Connection Owner Compass Airlines
Airfield based Minneapolis-St.Paul Int'l~MN~N First tracked 2017-07-13 13:30:00

Flight history for N624CZ

Route Flight No Date Playback
Los Angeles Intl (LAX) - Phoenix Sky Harbor Intl (PHX) - Los Angeles Intl (LAX) DL5726 2019-11-21 22:26:00
Los Angeles Intl (LAX) - San Diego Intl (SAN) - Los Angeles Intl (LAX) DL5776 2019-11-21 19:03:00
Phoenix Sky Harbor Intl (PHX) - Los Angeles Intl (LAX) DL5809 2019-11-21 15:28:00
Los Angeles Intl (LAX) - Phoenix Sky Harbor Intl (PHX) DL5784 2019-11-21 14:19:00
Los Angeles Intl (LAX) - McCarran Intl (LAS) - Los Angeles Intl (LAX) DL5739 2019-11-21 02:26:00
Los Angeles Intl (LAX) - Sacramento Intl (SMF) - Los Angeles Intl (LAX) DL5703 2019-11-20 22:13:00
Los Angeles Intl (LAX) - San Diego Intl (SAN) - Los Angeles Intl (LAX) DL5795 2019-11-20 16:26:00
Phoenix Sky Harbor Intl (PHX) - Los Angeles Intl (LAX) DL5763 2019-11-20 04:41:00
Salt Lake City Intl (SLC) - Phoenix Sky Harbor Intl (PHX) DL5768 2019-11-20 03:08:00
Vancouver International (YVR) - Salt Lake City Intl (SLC) DL5835 2019-11-20 00:18:00
Salt Lake City Intl (SLC) - Vancouver International (YVR) DL5765 2019-11-19 21:08:00
Phoenix Sky Harbor Intl (PHX) - Salt Lake City Intl (SLC) DL5699 2019-11-19 16:59:00
Los Angeles Intl (LAX) - Phoenix Sky Harbor Intl (PHX) DL5694 2019-11-19 06:26:00
Phoenix Sky Harbor Intl (PHX) - Los Angeles Intl (LAX) DL5763 2019-11-19 04:37:00
Salt Lake City Intl (SLC) - Phoenix Sky Harbor Intl (PHX) DL5768 2019-11-19 03:07:00
Calgary International (YYC) - Salt Lake City Intl (SLC) DL5821 2019-11-19 00:16:00
Salt Lake City Intl (SLC) - Calgary International (YYC) DL5820 2019-11-18 20:58:00
Calgary International (YYC) - Salt Lake City Intl (SLC) DL5773 2019-11-18 17:54:00
Seattle Tacoma Intl (SEA) - Calgary International (YYC) DL5770 2019-11-18 06:22:00
Seattle Tacoma Intl (SEA) - John Wayne Arpt Orange Co (SNA) - Seattle Tacoma Intl (SEA) DL5831 2019-11-18 04:56:00
Time Lat Lon Altitude Heading Speed Vertical Rate
2019-10-08 03:37:37 GMT 33.946159 -118.405579 0 202 7
2019-10-08 03:37:34 GMT 33.946217 -118.405525 0 202 7
2019-10-08 03:37:25 GMT 33.946510 -118.405449 0 180 8
2019-10-08 03:37:08 GMT 33.947124 -118.405525 0 174 7
2019-10-08 03:37:03 GMT 33.947273 -118.405540 0 171 7
2019-10-08 03:36:53 GMT 33.947613 -118.405655 0 149 10
2019-10-08 03:36:42 GMT 33.948063 -118.405907 0 163 10
2019-10-08 03:36:32 GMT 33.948475 -118.406174 0 123 11
2019-10-08 03:36:21 GMT 33.948559 -118.406898 0 84 14
2019-10-08 03:36:10 GMT 33.948486 -118.407684 0 84 13
2019-10-08 03:35:59 GMT 33.948406 -118.408417 0 84 11
2019-10-08 03:35:48 GMT 33.948338 -118.409050 0 84 11
2019-10-08 03:35:37 GMT 33.948277 -118.409698 0 84 11
2019-10-08 03:35:26 GMT 33.948212 -118.410339 0 84 11
2019-10-08 03:35:16 GMT 33.948154 -118.410912 0 81 10
2019-10-08 03:35:04 GMT 33.948086 -118.411545 0 84 9
2019-10-08 03:34:53 GMT 33.948032 -118.412086 0 84 11
2019-10-08 03:34:42 GMT 33.947960 -118.412804 0 81 12
2019-10-08 03:34:30 GMT 33.947868 -118.413506 0 75 9
2019-10-08 03:34:21 GMT 33.947765 -118.413795 0 45 3
2019-10-08 03:34:10 GMT 33.947731 -118.413849 0 33 1
2019-10-08 03:34:00 GMT 33.947601 -118.413918 0 11 6
2019-10-08 03:33:49 GMT 33.947262 -118.413940 0 2 8
2019-10-08 03:33:35 GMT 33.946892 -118.414108 0 53 4
2019-10-08 03:33:10 GMT 33.946732 -118.414894 0 81 6
2019-10-08 03:33:04 GMT 33.946705 -118.415062 0 84 7
2019-10-08 03:32:55 GMT 33.946678 -118.415436 0 84 8
2019-10-08 03:32:43 GMT 33.946613 -118.416039 0 84 13
2019-10-08 03:32:32 GMT 33.946529 -118.416855 0 84 13
2019-10-08 03:32:22 GMT 33.946449 -118.417542 0 64 13
2019-10-08 03:32:11 GMT 33.945923 -118.418015 0 8 13
2019-10-08 03:31:54 GMT 33.944950 -118.417961 0 354 13
2019-10-08 03:31:49 GMT 33.944622 -118.417915 0 351 13
2019-10-08 03:30:17 GMT 33.939072 -118.417099 0 354 14
2019-10-08 03:30:08 GMT 33.938519 -118.416977 0 354 12
2019-10-08 03:30:01 GMT 33.938152 -118.417046 0 36 12
2019-10-08 03:29:50 GMT 33.937820 -118.417641 0 78 13
2019-10-08 03:29:35 GMT 33.937710 -118.418625 0 81 12
2019-10-08 03:29:24 GMT 33.937618 -118.419243 0 101 9
2019-10-08 03:29:17 GMT 33.937729 -118.419533 0 137 10
2019-10-08 03:29:06 GMT 33.938141 -118.419739 0 174 6
2019-10-08 03:28:11 GMT 33.938255 -118.419754 0 174 0
2019-10-08 03:28:02 GMT 33.938271 -118.419754 0 174 0
2019-10-08 03:27:46 GMT 33.938282 -118.419754 0 174 0
2019-10-08 03:27:41 GMT 33.938335 -118.419769 0 174 0
2019-10-08 03:27:00 GMT 33.938347 -118.419769 0 174 0
2019-10-08 03:26:05 GMT 33.938351 -118.419769 0 174 0
2019-10-08 03:25:55 GMT 33.938347 -118.419769 0 174 0
2019-10-08 03:25:20 GMT 33.938351 -118.419769 0 174 0
2019-10-08 03:25:10 GMT 33.938339 -118.419769 0 174 0
2019-10-08 03:24:50 GMT 33.938351 -118.419769 0 174 0
2019-10-08 03:24:40 GMT 33.938351 -118.419754 0 174 0
2019-10-08 03:24:37 GMT 33.938351 -118.419769 0 174 0
2019-10-08 03:24:25 GMT 33.938351 -118.419754 0 174 0
2019-10-08 03:24:14 GMT 33.938347 -118.419769 0 174 2
2019-10-08 03:24:03 GMT 33.938519 -118.419785 0 174 4
2019-10-08 03:23:52 GMT 33.938725 -118.419815 0 171 5
We lost coverage of the aircraft here for a total of 9 minutes
2019-10-08 03:14:50 GMT 33.939079 -118.419876 0 174 0
We lost coverage of the aircraft here for a total of 5 minutes
2019-10-08 03:09:43 GMT 33.939079 -118.419876 0 174 0
2019-10-08 03:09:26 GMT 33.939072 -118.419868 0 174 0
2019-10-08 03:09:22 GMT 33.939083 -118.419868 0 174 0
2019-10-08 03:08:28 GMT 33.939262 -118.419891 0 180 0
2019-10-08 03:07:29 GMT 33.939259 -118.419899 0 180 0
2019-10-08 03:07:19 GMT 33.939262 -118.419891 0 180 0
2019-10-08 03:07:09 GMT 33.939259 -118.419884 0 180 0
2019-10-08 03:06:39 GMT 33.939262 -118.419891 0 180 0
2019-10-08 03:05:29 GMT 33.939259 -118.419884 0 180 0
2019-10-08 03:04:59 GMT 33.939205 -118.419891 0 177 0
2019-10-08 03:04:29 GMT 33.939213 -118.419884 0 177 0
2019-10-08 03:04:03 GMT 33.939217 -118.419891 0 177 0
2019-10-08 03:03:33 GMT 33.939213 -118.419884 0 177 0
2019-10-08 03:03:08 GMT 33.939217 -118.419891 0 177 0
2019-10-08 03:02:57 GMT 33.939205 -118.419891 0 177 0
2019-10-08 03:02:52 GMT 33.939213 -118.419884 0 177 0
2019-10-08 03:02:22 GMT 33.939217 -118.419891 0 177 0
2019-10-08 03:02:17 GMT 33.939213 -118.419884 0 177 0
We lost coverage of the aircraft here for a total of 459 minutes
2019-10-07 19:23:34 GMT 33.947445 -118.404465 0 165 5 0
2019-10-07 19:23:20 GMT 33.947777 -118.404594 0 149 7 0
2019-10-07 19:23:11 GMT 33.947929 -118.404823 0 95 7 0
2019-10-07 19:23:01 GMT 33.947906 -118.405266 0 84 9 0
2019-10-07 19:22:50 GMT 33.947964 -118.405769 0 129 9 0
2019-10-07 19:22:39 GMT 33.948288 -118.406013 0 160 7 0
2019-10-07 19:22:28 GMT 33.948570 -118.406311 0 104 8 0
2019-10-07 19:22:16 GMT 33.948566 -118.406830 0 84 8 0
2019-10-07 19:22:04 GMT 33.948521 -118.407295 0 81 6 0
2019-10-07 19:21:54 GMT 33.948486 -118.407562 0 84 4 0
2019-10-07 19:21:43 GMT 33.948475 -118.407639 0 84 0 0
2019-10-07 19:21:32 GMT 33.948475 -118.407700 0 84 3 0
2019-10-07 19:21:20 GMT 33.948441 -118.408012 0 84 9 0
2019-10-07 19:21:10 GMT 33.948372 -118.408669 0 84 13 0
2019-10-07 19:20:58 GMT 33.948292 -118.409492 0 84 13 0
2019-10-07 19:20:47 GMT 33.948219 -118.410217 0 84 13 0
2019-10-07 19:20:36 GMT 33.948139 -118.410988 0 84 13 0
2019-10-07 19:20:24 GMT 33.948051 -118.411835 0 84 13 0
2019-10-07 19:20:11 GMT 33.947960 -118.412720 0 84 12 0
2019-10-07 19:20:02 GMT 33.947918 -118.413261 0 84 10 0
2019-10-07 19:19:53 GMT 33.947800 -118.413712 0 47 10 0
2019-10-07 19:19:42 GMT 33.947353 -118.413910 0 354 10 0
2019-10-07 19:19:30 GMT 33.946804 -118.413841 0 351 12 0
2019-10-07 19:19:20 GMT 33.946239 -118.413750 0 351 12 0
2019-10-07 19:19:07 GMT 33.945545 -118.413643 0 354 13 0
2019-10-07 19:18:56 GMT 33.944927 -118.413551 0 351 13 0
2019-10-07 19:18:44 GMT 33.944241 -118.413445 0 351 13 0
2019-10-07 19:17:53 GMT 33.941288 -118.413010 0 354 13 0
2019-10-07 19:17:48 GMT 33.940968 -118.412971 0 351 13 0
2019-10-07 19:17:36 GMT 33.940308 -118.412872 0 354 13 0
2019-10-07 19:17:17 GMT 33.939281 -118.412720 0 351 12 0
2019-10-07 19:16:35 GMT 33.938141 -118.414360 0 84 14 0
2019-10-07 19:16:31 GMT 33.938118 -118.414627 0 84 13 0
2019-10-07 19:16:19 GMT 33.938026 -118.415489 0 84 13 0
2019-10-07 19:16:09 GMT 33.937946 -118.416222 0 84 13 0
2019-10-07 19:15:58 GMT 33.937862 -118.416992 0 84 13 0
2019-10-07 19:15:46 GMT 33.937778 -118.417809 0 84 13 0
2019-10-07 19:15:23 GMT 33.937523 -118.419266 0 36 12 0
2019-10-07 19:15:11 GMT 33.936909 -118.419388 0 354 11 0
2019-10-07 19:15:01 GMT 33.936569 -118.419342 0 354 0 0
2019-10-07 19:14:46 GMT 33.936546 -118.419342 0 354 0 0
2019-10-07 19:14:38 GMT 33.936546 -118.419327 0 354 0 0
2019-10-07 19:14:27 GMT 33.936546 -118.419342 0 354 0 0
2019-10-07 19:14:14 GMT 33.936550 -118.419334 0 354 0 0
2019-10-07 19:14:05 GMT 33.936447 -118.419319 0 354 6 0
2019-10-07 19:13:54 GMT 33.936047 -118.419266 0 348 10 0
2019-10-07 19:13:43 GMT 33.935532 -118.419167 0 348 10 0
2019-10-07 19:13:32 GMT 33.935143 -118.418915 0 303 9 0
2019-10-07 19:13:20 GMT 33.934975 -118.418488 0 289 0 0
2019-10-07 19:12:55 GMT 33.934959 -118.418419 0 286 0 0
2019-10-07 19:12:13 GMT 33.934963 -118.418427 0 286 0 0
2019-10-07 19:12:04 GMT 33.934937 -118.418350 0 284 5 0
2019-10-07 19:11:53 GMT 33.934895 -118.417969 0 270 8 0
2019-10-07 19:11:42 GMT 33.934914 -118.417595 0 261 4 0
2019-10-07 19:11:30 GMT 33.934925 -118.417480 0 261 0 0
2019-10-07 19:11:15 GMT 33.934925 -118.417442 0 264 0 0
2019-10-07 19:11:05 GMT 33.934929 -118.417442 0 264 0 0
2019-10-07 19:10:45 GMT 33.934925 -118.417458 0 264 0 0
2019-10-07 19:10:35 GMT 33.934929 -118.417442 0 264 0 0
2019-10-07 19:10:20 GMT 33.934925 -118.417458 0 264 0 0
2019-10-07 19:10:10 GMT 33.934929 -118.417442 0 264 0 0
2019-10-07 19:09:34 GMT 33.934925 -118.417442 0 264 0 0
2019-10-07 19:09:24 GMT 33.934929 -118.417442 0 264 0 0
2019-10-07 19:09:14 GMT 33.934925 -118.417442 0 264 0 0
2019-10-07 19:09:04 GMT 33.934929 -118.417442 0 264 0 0
2019-10-07 19:08:54 GMT 33.934929 -118.417458 0 264 0 0
2019-10-07 19:08:39 GMT 33.934929 -118.417442 0 264 0 0
2019-10-07 19:08:31 GMT 33.934906 -118.417480 0 264 0 0
2019-10-07 19:07:59 GMT 33.934925 -118.417442 0 264 0 0
2019-10-07 19:07:43 GMT 33.934929 -118.417442 0 264 0 0
2019-10-07 19:07:33 GMT 33.934925 -118.417458 0 264 0 0
2019-10-07 19:06:38 GMT 33.934929 -118.417442 0 264 0 0
2019-10-07 19:05:56 GMT 33.934925 -118.417442 0 264 0 0
2019-10-07 19:05:45 GMT 33.934952 -118.417183 0 261 11 0
2019-10-07 19:05:34 GMT 33.935051 -118.416267 0 261 18 0
2019-10-07 19:05:23 GMT 33.935150 -118.415237 0 264 17 0
2019-10-07 19:05:13 GMT 33.935253 -118.414246 0 261 16 0
2019-10-07 19:05:01 GMT 33.935360 -118.413246 0 261 16 0
2019-10-07 19:04:51 GMT 33.935452 -118.412361 0 264 15 0
2019-10-07 19:04:39 GMT 33.935547 -118.411430 0 264 15 0
2019-10-07 19:04:28 GMT 33.935638 -118.410484 0 261 15 0
2019-10-07 19:04:17 GMT 33.935738 -118.409569 0 261 15 0
2019-10-07 19:04:04 GMT 33.935837 -118.408600 0 264 14 0
2019-10-07 19:03:44 GMT 33.935978 -118.407181 0 261 11 0
2019-10-07 19:03:41 GMT 33.935989 -118.407028 0 264 11 0
2019-10-07 19:03:26 GMT 33.936092 -118.406120 0 261 12 0
2019-10-07 19:03:20 GMT 33.936127 -118.405754 0 264 13 0
2019-10-07 19:03:10 GMT 33.936195 -118.404984 0 264 15 0
2019-10-07 19:02:58 GMT 33.936234 -118.403877 0 275 20 0
2019-10-07 19:02:48 GMT 33.936012 -118.402771 0 286 23 0
2019-10-07 19:02:37 GMT 33.935696 -118.401291 0 278 27 0
2019-10-07 19:02:26 GMT 33.935684 -118.399628 0 264 29 0
2019-10-07 19:02:15 GMT 33.935883 -118.397308 50 264 52 -64
2019-10-07 19:02:04 GMT 33.936348 -118.392563 50 264 102 0
2019-10-07 19:01:52 GMT 33.937092 -118.385239 75 263 122 -384
2019-10-07 19:01:42 GMT 33.937840 -118.378143 300 263 138 -576
2019-10-07 19:01:33 GMT 33.938492 -118.371567 300 263 126 -640
2019-10-07 19:01:30 GMT 33.938690 -118.369499 400 263 138 -576
2019-10-07 19:01:20 GMT 33.939377 -118.363213 500 263 127 -704
2019-10-07 19:01:14 GMT 33.940308 -118.354225 475 264 126 -704
2019-10-07 19:01:07 GMT 33.940308 -118.354225 600 263 127 -704
2019-10-07 19:01:03 GMT 33.940678 -118.350616 625 263 127 -704
2019-10-07 19:00:58 GMT 33.941025 -118.347420 750 263 127 -704
2019-10-07 19:00:51 GMT 33.941574 -118.342316 775 264 127 -576
2019-10-07 19:00:45 GMT 33.941895 -118.338615 800 264 127 -640
2019-10-07 19:00:40 GMT 33.942307 -118.334473 875 264 128 -704
2019-10-07 19:00:35 GMT 33.942680 -118.330826 925 264 132 -640
2019-10-07 19:00:32 GMT 33.942867 -118.328705 975 264 140 -768
2019-10-07 19:00:28 GMT 33.943192 -118.325500 1,025 264 132 -768
2019-10-07 19:00:25 GMT 33.943333 -118.324013 1,250 264 140 -768
2019-10-07 19:00:16 GMT 33.944031 -118.316803 1,150 263 136 -704
2019-10-07 19:00:12 GMT 33.944820 -118.309250 1,250 264 140 -768
2019-10-07 19:00:06 GMT 33.944820 -118.309250 1,300 264 140 -768
2019-10-07 19:00:02 GMT 33.945145 -118.305885 1,300 264 142 -704
2019-10-07 18:59:56 GMT 33.945614 -118.301239 1,375 263 149 -768
2019-10-07 18:59:52 GMT 33.945938 -118.297974 1,425 263 154 -896
2019-10-07 18:59:45 GMT 33.946609 -118.291588 1,550 264 161 -832
2019-10-07 18:59:41 GMT 33.946930 -118.287888 1,600 264 167 -896
2019-10-07 18:59:34 GMT 33.947613 -118.281387 1,825 264 174 -1024
2019-10-07 18:59:30 GMT 33.947937 -118.278023 1,750 264 180 -960
2019-10-07 18:59:22 GMT 33.948730 -118.269768 1,875 264 187 -1024
2019-10-07 18:59:18 GMT 33.949356 -118.263672 1,975 264 192 -1024
2019-10-07 18:59:10 GMT 33.949894 -118.257919 2,100 264 192 -1024
2019-10-07 18:59:07 GMT 33.950176 -118.255402 2,250 264 191 -1024
2019-10-07 18:59:02 GMT 33.950729 -118.249268 2,250 264 191 -1024
2019-10-07 18:58:56 GMT 33.951462 -118.241982 2,325 264 190 -1024
2019-10-07 18:58:51 GMT 33.951965 -118.236938 2,425 264 190 -1024
2019-10-07 18:58:47 GMT 33.952408 -118.232574 2,475 263 190 -1024
2019-10-07 18:58:44 GMT 33.952736 -118.229485 2,525 263 190 -960
2019-10-07 18:58:41 GMT 33.953568 -118.222137 2,600 262 191 -1088
2019-10-07 18:58:37 GMT 33.953568 -118.222137 2,675 261 191 -1216
2019-10-07 18:58:34 GMT 33.954037 -118.218903 2,725 261 190 -1280
2019-10-07 18:58:29 GMT 33.954712 -118.214180 2,825 261 190 -1280
2019-10-07 18:58:26 GMT 33.955063 -118.211456 2,900 262 190 -1344
2019-10-07 18:58:23 GMT 33.955528 -118.207626 2,950 263 189 -1280
2019-10-07 18:58:18 GMT 33.955994 -118.202187 3,075 268 188 -1216
2019-10-07 18:58:15 GMT 33.955948 -118.195892 3,125 272 187 -1152
2019-10-07 18:58:08 GMT 33.955669 -118.193031 3,250 282 182 -1088
2019-10-07 18:58:05 GMT 33.955032 -118.189346 3,300 284 181 -1088
2019-10-07 18:58:01 GMT 33.954178 -118.185249 3,325 285 180 -1152
2019-10-07 18:57:57 GMT 33.953526 -118.182106 3,450 285 180 -1088
2019-10-07 18:57:53 GMT 33.952503 -118.177299 3,525 285 180 -1216
2019-10-07 18:57:50 GMT 33.951874 -118.174385 3,600 285 181 -1344
2019-10-07 18:57:47 GMT 33.951233 -118.171242 3,650 285 181 -1152
2019-10-07 18:57:42 GMT 33.950226 -118.166534 3,750 284 182 -1152
2019-10-07 18:57:39 GMT 33.949711 -118.163910 3,825 285 183 -1280
2019-10-07 18:57:36 GMT 33.949081 -118.160988 3,850 285 183 -1280
2019-10-07 18:57:31 GMT 33.947941 -118.155617 3,925 285 183 -512
2019-10-07 18:57:26 GMT 33.947159 -118.151733 3,950 284 182 0
2019-10-07 18:57:20 GMT 33.945831 -118.145401 3,950 284 182 0
2019-10-07 18:57:17 GMT 33.944412 -118.138733 3,950 285 182 64
2019-10-07 18:57:11 GMT 33.943817 -118.135986 3,925 285 182 64
2019-10-07 18:57:03 GMT 33.942352 -118.129204 3,925 286 183 -128
2019-10-07 18:56:58 GMT 33.941097 -118.123856 3,950 287 183 -128
2019-10-07 18:56:53 GMT 33.937363 -118.113960 3,950 301 185 64
2019-10-07 18:56:48 GMT 33.937363 -118.113960 3,950 308 184 0
2019-10-07 18:56:42 GMT 33.933510 -118.109550 3,950 325 184 128
2019-10-07 18:56:37 GMT 33.929832 -118.107262 3,925 337 184 128
2019-10-07 18:56:34 GMT 33.927177 -118.106346 3,925 349 185 0
2019-10-07 18:56:29 GMT 33.924271 -118.105995 3,925 359 186 64
2019-10-07 18:56:26 GMT 33.920612 -118.106293 3,925 78 204 -960
2019-10-07 18:56:22 GMT 33.914978 -118.108635 3,975 26 194 -512
2019-10-07 18:56:14 GMT 33.911304 -118.111900 4,050 41 199 -768
2019-10-07 18:56:10 GMT 33.907150 -118.118607 4,100 56 203 -832
2019-10-07 18:56:07 GMT 33.907150 -118.118607 4,150 66 203 -896
2019-10-07 18:56:04 GMT 33.906044 -118.121735 4,250 74 204 -960
2019-10-07 18:56:00 GMT 33.905228 -118.125504 4,250 79 204 -960
2019-10-07 18:55:56 GMT 33.904541 -118.130882 4,275 81 204 -960
2019-10-07 18:55:53 GMT 33.904133 -118.134331 4,400 82 204 -896
2019-10-07 18:55:50 GMT 33.903809 -118.137421 4,400 82 204 -960
2019-10-07 18:55:45 GMT 33.902756 -118.146416 4,475 82 205 -960
2019-10-07 18:55:42 GMT 33.902756 -118.146416 4,600 82 207 -832
2019-10-07 18:55:38 GMT 33.902321 -118.150352 4,550 82 208 -704
2019-10-07 18:55:35 GMT 33.901794 -118.155159 4,625 82 212 -832
2019-10-07 18:55:31 GMT 33.901337 -118.159470 4,675 81 215 -1024
2019-10-07 18:55:28 GMT 33.901062 -118.161674 4,700 81 215 -1024
2019-10-07 18:55:25 GMT 33.900696 -118.165192 4,750 81 215 -1024
2019-10-07 18:55:20 GMT 33.899780 -118.172363 4,825 80 216 -1024
2019-10-07 18:55:16 GMT 33.899094 -118.177185 4,900 78 217 -896
2019-10-07 18:55:13 GMT 33.898590 -118.179985 4,925 72 217 -128
2019-10-07 18:55:10 GMT 33.898087 -118.182343 4,950 69 217 -64
2019-10-07 18:55:07 GMT 33.896732 -118.187309 4,950 66 217 -128
2019-10-07 18:55:03 GMT 33.894882 -118.191986 4,950 62 217 0
2019-10-07 18:54:59 GMT 33.893475 -118.195213 4,950 62 216 64
2019-10-07 18:54:56 GMT 33.891678 -118.199326 4,950 62 216 64
2019-10-07 18:54:53 GMT 33.890633 -118.201675 4,950 62 216 0
2019-10-07 18:54:49 GMT 33.888336 -118.206947 4,950 62 216 0
2019-10-07 18:54:45 GMT 33.886909 -118.210197 4,950 62 216 0
2019-10-07 18:54:42 GMT 33.885178 -118.214233 4,950 62 216 -64
2019-10-07 18:54:37 GMT 33.883301 -118.218552 4,950 62 216 -64
2019-10-07 18:54:34 GMT 33.881882 -118.221764 4,950 62 216 -64
2019-10-07 18:54:31 GMT 33.879913 -118.226288 4,950 62 216 0
2019-10-07 18:54:26 GMT 33.876434 -118.234177 4,950 62 215 64
2019-10-07 18:54:23 GMT 33.876434 -118.234177 4,950 62 215 64
2019-10-07 18:54:20 GMT 33.875366 -118.236633 4,950 62 215 0
2019-10-07 18:54:17 GMT 33.871902 -118.244614 4,950 62 215 0
2019-10-07 18:54:13 GMT 33.871902 -118.244614 4,950 62 215 0
2019-10-07 18:54:09 GMT 33.869965 -118.249054 4,950 62 216 0
2019-10-07 18:54:04 GMT 33.867870 -118.253746 4,950 62 216 -64
2019-10-07 18:54:01 GMT 33.866684 -118.256500 4,950 61 216 0
2019-10-07 18:53:58 GMT 33.865078 -118.260101 4,950 61 216 64
2019-10-07 18:53:54 GMT 33.863480 -118.263672 4,950 61 216 0
2019-10-07 18:53:51 GMT 33.861786 -118.267433 4,950 62 216 -64
2019-10-07 18:53:48 GMT 33.860275 -118.270958 4,950 62 216 -64
2019-10-07 18:53:45 GMT 33.856651 -118.279381 4,950 77 215 -64
2019-10-07 18:53:41 GMT 33.856651 -118.279381 4,950 64 216 -64
2019-10-07 18:53:38 GMT 33.855442 -118.282471 4,950 65 216 64
2019-10-07 18:53:34 GMT 33.852585 -118.291252 4,950 77 215 -64
2019-10-07 18:53:30 GMT 33.852585 -118.291252 4,950 79 216 -64
2019-10-07 18:53:26 GMT 33.851719 -118.295692 4,950 79 216 -64
2019-10-07 18:53:22 GMT 33.850662 -118.304535 4,950 82 215 64
2019-10-07 18:53:19 GMT 33.850662 -118.304535 4,950 82 215 0
2019-10-07 18:53:16 GMT 33.850273 -118.308044 4,950 82 215 64
2019-10-07 18:53:12 GMT 33.849899 -118.311539 4,950 82 215 0
2019-10-07 18:53:08 GMT 33.849251 -118.317322 4,950 82 214 0
2019-10-07 18:53:05 GMT 33.848831 -118.321098 4,950 82 214 64
2019-10-07 18:53:00 GMT 33.848190 -118.327011 4,950 82 214 0
2019-10-07 18:52:57 GMT 33.847759 -118.330589 4,950 82 214 64
2019-10-07 18:52:54 GMT 33.847412 -118.333626 4,950 82 214 64
2019-10-07 18:52:51 GMT 33.847046 -118.336990 4,950 81 215 0
2019-10-07 18:52:48 GMT 33.846737 -118.339523 4,950 80 215 -128
2019-10-07 18:52:45 GMT 33.846176 -118.344109 4,950 80 215 -128
2019-10-07 18:52:42 GMT 33.845810 -118.346466 4,950 80 216 -192
2019-10-07 18:52:36 GMT 33.844269 -118.355202 4,950 68 217 192
2019-10-07 18:52:30 GMT 33.841919 -118.362213 4,950 60 218 64
2019-10-07 18:52:26 GMT 33.840263 -118.365211 4,950 53 218 -128
2019-10-07 18:52:23 GMT 33.838730 -118.367500 4,950 50 218 -64
2019-10-07 18:52:20 GMT 33.836746 -118.370232 4,950 47 218 64
2019-10-07 18:52:16 GMT 33.833405 -118.374550 4,950 47 218 -64
2019-10-07 18:52:11 GMT 33.829372 -118.379807 4,950 47 218 0
2019-10-07 18:52:05 GMT 33.826035 -118.384186 4,950 47 219 64
2019-10-07 18:52:01 GMT 33.823601 -118.387360 4,950 47 219 0
2019-10-07 18:51:58 GMT 33.820572 -118.391304 4,950 47 219 0
2019-10-07 18:51:54 GMT 33.818943 -118.393417 4,950 47 218 -64
2019-10-07 18:51:51 GMT 33.815781 -118.397583 4,950 47 218 -64
2019-10-07 18:51:47 GMT 33.812893 -118.401321 4,950 47 218 0
2019-10-07 18:51:38 GMT 33.806839 -118.409210 4,950 47 218 0
2019-10-07 18:51:35 GMT 33.805489 -118.411041 4,950 47 218 0
2019-10-07 18:51:29 GMT 33.800674 -118.417259 4,950 47 219 -64
2019-10-07 18:51:25 GMT 33.798599 -118.419968 4,950 47 219 0
2019-10-07 18:51:18 GMT 33.793388 -118.426720 4,950 47 219 0
2019-10-07 18:51:15 GMT 33.791107 -118.429642 4,950 47 219 0
2019-10-07 18:51:07 GMT 33.786026 -118.436203 4,950 47 219 0
2019-10-07 18:51:04 GMT 33.783508 -118.439453 4,950 47 219 0
2019-10-07 18:50:56 GMT 33.777969 -118.446632 4,950 47 217 0
2019-10-07 18:50:52 GMT 33.776321 -118.448761 4,950 47 217 0
2019-10-07 18:50:45 GMT 33.770279 -118.456612 4,950 47 218 0
2019-10-07 18:50:42 GMT 33.768860 -118.458405 4,950 47 218 0
2019-10-07 18:50:33 GMT 33.762772 -118.466309 4,950 47 218 0
2019-10-07 18:50:30 GMT 33.760658 -118.468948 4,950 47 218 0
2019-10-07 18:50:21 GMT 33.753891 -118.477737 4,950 47 219 0
2019-10-07 18:50:09 GMT 33.745438 -118.488579 4,950 61 217 0
2019-10-07 18:50:00 GMT 33.739471 -118.496292 4,950 47 219 0
2019-10-07 18:49:57 GMT 33.737896 -118.498306 4,950 47 218 0
2019-10-07 18:49:49 GMT 33.732239 -118.505653 4,950 47 218 0
2019-10-07 18:49:46 GMT 33.730167 -118.508324 4,950 47 218 0
2019-10-07 18:49:34 GMT 33.722488 -118.518333 4,950 47 218 64
2019-10-07 18:49:26 GMT 33.716434 -118.526176 4,950 47 217 0
2019-10-07 18:49:22 GMT 33.713131 -118.530464 4,950 47 217 0
2019-10-07 18:49:15 GMT 33.708801 -118.536072 4,950 47 218 0
2019-10-07 18:49:10 GMT 33.705597 -118.540291 4,950 47 218 0
2019-10-07 18:49:04 GMT 33.701569 -118.545731 4,950 61 217 0
2019-10-07 18:49:01 GMT 33.699074 -118.549232 4,950 51 217 128
2019-10-07 18:48:52 GMT 33.694324 -118.557526 4,950 60 217 -64
2019-10-07 18:48:43 GMT 33.689804 -118.567703 4,950 61 217 0
2019-10-07 18:48:31 GMT 33.684036 -118.580544 4,950 61 217 0
2019-10-07 18:48:19 GMT 33.678085 -118.593765 4,950 61 217 64
2019-10-07 18:48:10 GMT 33.672363 -118.606552 4,950 62 217 64
2019-10-07 18:48:06 GMT 33.672363 -118.606552 4,950 62 218 0
2019-10-07 18:47:59 GMT 33.669388 -118.613441 4,950 89 218 0
2019-10-07 18:47:56 GMT 33.667324 -118.618469 4,950 66 218 -64
2019-10-07 18:47:48 GMT 33.664532 -118.627510 4,950 77 218 0
2019-10-07 18:47:37 GMT 33.664444 -118.639786 4,950 103 217 0
2019-10-07 18:47:34 GMT 33.671036 -118.653854 4,950 112 216 -64
2019-10-07 18:47:24 GMT 33.671036 -118.653854 4,950 136 215 64
2019-10-07 18:47:15 GMT 33.677994 -118.659294 4,950 159 214 64
2019-10-07 18:47:12 GMT 33.680191 -118.660248 4,950 169 213 -128
2019-10-07 18:47:05 GMT 33.688019 -118.661873 4,950 173 213 0
2019-10-07 18:47:01 GMT 33.691132 -118.662262 4,950 173 212 0
2019-10-07 18:46:52 GMT 33.700840 -118.663506 4,950 174 213 -64
2019-10-07 18:46:48 GMT 33.703812 -118.663895 4,950 174 213 -64
2019-10-07 18:46:42 GMT 33.711456 -118.664818 4,950 174 213 0
2019-10-07 18:46:38 GMT 33.714798 -118.665237 4,950 174 213 0
2019-10-07 18:46:30 GMT 33.722488 -118.666191 4,950 174 213 0
2019-10-07 18:46:21 GMT 33.731003 -118.667252 4,950 174 213 0
2019-10-07 18:46:18 GMT 33.733017 -118.667480 4,950 174 213 0
2019-10-07 18:46:14 GMT 33.742317 -118.668594 4,950 174 213 0
2019-10-07 18:46:10 GMT 33.742317 -118.668594 4,950 174 214 0
2019-10-07 18:46:07 GMT 33.743900 -118.668823 4,950 174 214 0
2019-10-07 18:46:02 GMT 33.748718 -118.669380 4,950 174 214 0
2019-10-07 18:45:59 GMT 33.752792 -118.669891 4,950 174 214 0
2019-10-07 18:45:56 GMT 33.754982 -118.670135 4,950 174 214 0
2019-10-07 18:45:50 GMT 33.761265 -118.670883 4,950 174 214 0
2019-10-07 18:45:47 GMT 33.765270 -118.671394 4,950 174 214 0
2019-10-07 18:45:39 GMT 33.772812 -118.672318 4,950 174 215 0
2019-10-07 18:45:36 GMT 33.775726 -118.672691 4,950 174 215 0
2019-10-07 18:45:30 GMT 33.786575 -118.674034 4,950 174 215 -64
2019-10-07 18:45:25 GMT 33.786575 -118.674034 4,950 174 215 64
2019-10-07 18:45:21 GMT 33.789780 -118.674431 4,950 174 215 0
2019-10-07 18:45:18 GMT 33.793350 -118.674873 4,950 174 215 -64
2019-10-07 18:45:13 GMT 33.797436 -118.675407 4,950 174 215 0
2019-10-07 18:45:07 GMT 33.803860 -118.676208 4,950 174 215 0
2019-10-07 18:45:02 GMT 33.808144 -118.676720 4,950 174 215 -64
2019-10-07 18:44:58 GMT 33.812714 -118.677284 4,950 173 215 0
2019-10-07 18:44:55 GMT 33.815598 -118.677628 4,950 173 214 0
2019-10-07 18:44:52 GMT 33.819363 -118.678146 4,950 173 214 0
2019-10-07 18:44:45 GMT 33.825073 -118.678856 4,950 173 214 0
2019-10-07 18:44:42 GMT 33.829514 -118.679420 4,950 173 214 0
2019-10-07 18:44:37 GMT 33.834026 -118.680038 4,950 173 214 0
2019-10-07 18:44:34 GMT 33.835876 -118.680260 4,950 173 214 0
2019-10-07 18:44:31 GMT 33.840031 -118.680779 4,950 173 214 0
2019-10-07 18:44:25 GMT 33.846363 -118.681641 4,950 173 215 0
2019-10-07 18:44:21 GMT 33.849155 -118.681984 4,950 173 214 0
2019-10-07 18:44:15 GMT 33.859863 -118.683411 4,950 173 215 0
2019-10-07 18:44:11 GMT 33.859863 -118.683411 4,950 173 215 64
2019-10-07 18:44:04 GMT 33.866611 -118.684334 4,950 174 215 -64
2019-10-07 18:44:00 GMT 33.870392 -118.684853 4,950 173 215 0
2019-10-07 18:43:53 GMT 33.877785 -118.685760 4,950 175 215 -64
2019-10-07 18:43:49 GMT 33.881882 -118.686142 4,950 176 215 -64
2019-10-07 18:43:43 GMT 33.887970 -118.686371 4,950 182 215 192
2019-10-07 18:43:36 GMT 33.899155 -118.684158 4,950 194 215 0
2019-10-07 18:43:31 GMT 33.899155 -118.684158 4,950 194 215 0
2019-10-07 18:43:27 GMT 33.903214 -118.682945 4,950 195 214 0
2019-10-07 18:43:20 GMT 33.910374 -118.680779 4,950 195 214 0
2019-10-07 18:43:15 GMT 33.914562 -118.679520 4,975 196 215 -64
2019-10-07 18:43:11 GMT 33.918053 -118.678375 4,975 198 215 -128
2019-10-07 18:43:07 GMT 33.922211 -118.677010 4,950 220 217 -128
2019-10-07 18:43:04 GMT 33.925232 -118.675888 4,975 200 215 128
2019-10-07 18:43:01 GMT 33.928154 -118.674721 4,950 202 215 256
2019-10-07 18:42:57 GMT 33.932159 -118.672600 4,950 220 217 -128
2019-10-07 18:42:52 GMT 33.935837 -118.669739 4,950 219 217 -128
2019-10-07 18:42:49 GMT 33.937420 -118.668137 4,950 223 217 -64
2019-10-07 18:42:46 GMT 33.940247 -118.664902 4,950 225 217 0
2019-10-07 18:42:43 GMT 33.942680 -118.662010 4,950 225 218 0
2019-10-07 18:42:40 GMT 33.945053 -118.659264 4,950 225 218 64
2019-10-07 18:42:35 GMT 33.947479 -118.656380 4,950 225 217 0
2019-10-07 18:42:31 GMT 33.951107 -118.652115 4,950 225 217 64
2019-10-07 18:42:28 GMT 33.952595 -118.650398 4,950 225 217 64
2019-10-07 18:42:25 GMT 33.955200 -118.647308 4,950 225 217 0
2019-10-07 18:42:22 GMT 33.958088 -118.643929 4,950 225 217 64
2019-10-07 18:42:19 GMT 33.960091 -118.641525 4,950 225 217 64
2019-10-07 18:42:14 GMT 33.962929 -118.638153 4,950 226 217 64
2019-10-07 18:42:11 GMT 33.965816 -118.634666 4,950 226 217 -64
2019-10-07 18:42:08 GMT 33.967346 -118.632729 4,950 227 217 -192
2019-10-07 18:42:04 GMT 33.970642 -118.628525 4,950 230 217 -64
2019-10-07 18:41:58 GMT 33.974442 -118.622749 4,950 246 219 0
2019-10-07 18:41:53 GMT 33.976868 -118.617088 4,950 267 220 192
2019-10-07 18:41:49 GMT 33.977875 -118.613029 4,950 258 219 128
2019-10-07 18:41:46 GMT 33.978199 -118.610687 4,950 263 219 192
2019-10-07 18:41:42 GMT 33.978386 -118.605194 4,950 274 221 0
2019-10-07 18:41:37 GMT 33.977081 -118.596436 4,950 285 221 0
2019-10-07 18:41:30 GMT 33.975918 -118.591064 4,950 285 221 0
2019-10-07 18:41:26 GMT 33.974670 -118.585472 4,950 285 222 0
2019-10-07 18:41:20 GMT 33.973034 -118.578133 4,950 285 222 0
2019-10-07 18:41:17 GMT 33.972149 -118.574242 4,950 285 222 0
2019-10-07 18:41:14 GMT 33.971729 -118.572289 4,950 285 222 0
2019-10-07 18:41:09 GMT 33.970146 -118.565140 4,950 286 223 0
2019-10-07 18:41:05 GMT 33.968933 -118.559761 4,950 286 223 0
2019-10-07 18:40:59 GMT 33.967392 -118.552849 4,950 286 223 0
2019-10-07 18:40:54 GMT 33.966141 -118.547234 4,950 286 222 0
2019-10-07 18:40:47 GMT 33.964558 -118.540024 4,950 286 222 64
2019-10-07 18:40:43 GMT 33.963161 -118.533783 4,950 285 221 320
2019-10-07 18:40:37 GMT 33.960114 -118.520172 4,750 285 220 768
2019-10-07 18:40:31 GMT 33.960114 -118.520172 4,350 261 188 3776
2019-10-07 18:40:27 GMT 33.958923 -118.514847 4,725 285 220 768
2019-10-07 18:40:23 GMT 33.958042 -118.510841 4,700 285 220 768
2019-10-07 18:40:20 GMT 33.957367 -118.507843 4,675 286 219 768
2019-10-07 18:40:15 GMT 33.955761 -118.500877 4,600 286 219 768
2019-10-07 18:40:10 GMT 33.954346 -118.494499 4,525 286 219 768
2019-10-07 18:40:05 GMT 33.952972 -118.488335 4,450 286 219 768
2019-10-07 18:40:02 GMT 33.952194 -118.484970 4,425 286 219 768
2019-10-07 18:39:59 GMT 33.951477 -118.481827 4,350 261 188 3776
2019-10-07 18:39:55 GMT 33.950455 -118.477196 4,300 286 218 1088
2019-10-07 18:39:51 GMT 33.949711 -118.473816 4,275 285 219 1088
2019-10-07 18:39:48 GMT 33.948685 -118.469070 4,200 284 219 704
2019-10-07 18:39:44 GMT 33.947754 -118.464317 4,150 282 220 512
2019-10-07 18:39:41 GMT 33.947147 -118.460602 4,150 282 220 512
2019-10-07 18:39:37 GMT 33.946732 -118.455620 4,075 272 218 896
2019-10-07 18:39:32 GMT 33.946964 -118.449265 4,000 266 217 768
2019-10-07 18:39:26 GMT 33.947708 -118.439774 3,900 265 214 1024
2019-10-07 18:39:23 GMT 33.947708 -118.439774 3,800 265 204 1344
2019-10-07 18:39:20 GMT 33.948074 -118.435364 3,775 265 202 1280
2019-10-07 18:39:15 GMT 33.948532 -118.429985 2,950 261 188 3776
2019-10-07 18:39:10 GMT 33.949059 -118.424263 3,500 263 184 2880
2019-10-07 18:39:04 GMT 33.949631 -118.419220 2,550 262 186 3776
2019-10-07 18:38:59 GMT 33.950359 -118.413620 2,850 261 190 3712
2019-10-07 18:38:56 GMT 33.950825 -118.410248 2,700 261 192 3200
2019-10-07 18:38:51 GMT 33.951527 -118.405151 2,425 262 187 1344
2019-10-07 18:38:48 GMT 33.951920 -118.402016 2,425 262 184 1088
2019-10-07 18:38:43 GMT 33.952515 -118.397079 2,375 263 171 256
2019-10-07 18:38:40 GMT 33.952827 -118.394569 2,375 263 171 256
2019-10-07 18:38:37 GMT 33.953156 -118.391365 2,300 263 166 1920
2019-10-07 18:38:34 GMT 33.953388 -118.389015 2,200 263 162 2752
2019-10-07 18:38:31 GMT 33.953659 -118.386658 2,075 263 160 2752
2019-10-07 18:38:25 GMT 33.954269 -118.380486 1,775 264 157 2496
2019-10-07 18:38:21 GMT 33.954620 -118.377182 1,525 263 153 2816
2019-10-07 18:38:12 GMT 33.955399 -118.369446 1,175 264 150 3200
2019-10-07 18:38:09 GMT 33.955574 -118.367905 950 263 148 1728
2019-10-07 18:38:01 GMT 33.956272 -118.361382 875 263 141 1024
2019-10-07 18:37:58 GMT 33.956505 -118.358856 1,200 263 150 -768
2019-10-07 18:37:50 GMT 33.957047 -118.353302 900 264 131 -640
2019-10-07 18:37:46 GMT 33.957344 -118.350510 950 264 131 -640
2019-10-07 18:37:39 GMT 33.957855 -118.345467 1,025 263 133 -704
2019-10-07 18:37:35 GMT 33.958145 -118.342651 1,275 263 140 -704
2019-10-07 18:37:29 GMT 33.958740 -118.337288 1,325 264 140 -704
2019-10-07 18:37:24 GMT 33.959061 -118.334358 1,200 263 137 -640
2019-10-07 18:37:19 GMT 33.959610 -118.329422 1,275 264 140 -704
2019-10-07 18:37:13 GMT 33.960022 -118.325386 1,300 263 140 -640
2019-10-07 18:37:08 GMT 33.960480 -118.321411 1,375 263 141 -768
2019-10-07 18:37:02 GMT 33.960976 -118.317085 1,450 263 143 -832
2019-10-07 18:36:56 GMT 33.961441 -118.312737 1,525 263 145 -832
2019-10-07 18:36:51 GMT 33.961952 -118.308167 1,600 263 149 -768
2019-10-07 18:36:46 GMT 33.962402 -118.303917 1,650 263 152 -768
2019-10-07 18:36:42 GMT 33.962791 -118.300438 1,700 263 153 -704
2019-10-07 18:36:39 GMT 33.962975 -118.298431 1,725 264 153 -704
2019-10-07 18:36:36 GMT 33.963272 -118.295067 1,800 265 155 -768
2019-10-07 18:36:32 GMT 33.963676 -118.289284 1,875 267 158 -960
2019-10-07 18:36:24 GMT 33.963909 -118.285446 1,975 267 162 -1408
2019-10-07 18:36:21 GMT 33.964142 -118.281326 2,100 266 163 -1536
2019-10-07 18:36:16 GMT 33.964325 -118.278252 2,150 254 169 -1472
2019-10-07 18:36:13 GMT 33.964600 -118.275673 2,200 262 168 -1024
2019-10-07 18:36:10 GMT 33.965305 -118.271423 2,300 255 169 -1408
2019-10-07 18:36:07 GMT 33.965958 -118.268967 2,375 248 169 -1536
2019-10-07 18:36:03 GMT 33.967255 -118.265633 2,475 241 169 -1600
2019-10-07 18:35:59 GMT 33.969028 -118.262383 2,575 234 168 -1408
2019-10-07 18:35:54 GMT 33.970753 -118.259583 2,675 234 169 -1280
2019-10-07 18:35:51 GMT 33.972198 -118.257286 2,725 234 169 -1344
2019-10-07 18:35:47 GMT 33.974670 -118.253250 2,850 234 170 -1152
2019-10-07 18:35:44 GMT 33.975815 -118.251457 2,875 234 171 -768
2019-10-07 18:35:41 GMT 33.977222 -118.249168 2,925 234 173 -640
2019-10-07 18:35:38 GMT 33.978516 -118.247086 2,975 234 181 -384
2019-10-07 18:35:32 GMT 33.981491 -118.242264 2,975 233 184 -448
2019-10-07 18:35:28 GMT 33.984192 -118.237999 3,025 233 189 -832
2019-10-07 18:35:25 GMT 33.985931 -118.235252 3,100 233 190 -1152
2019-10-07 18:35:22 GMT 33.987213 -118.233292 3,475 221 191 -1152
2019-10-07 18:35:19 GMT 33.988720 -118.231033 3,200 231 191 -1408
2019-10-07 18:35:15 GMT 33.991280 -118.227539 3,300 224 191 -1216
2019-10-07 18:35:11 GMT 33.993851 -118.224716 3,400 212 191 -1088
2019-10-07 18:35:07 GMT 33.997192 -118.222198 3,500 185 191 -704
2019-10-07 18:35:02 GMT 34.001011 -118.220558 3,975 121 202 -832
2019-10-07 18:34:59 GMT 34.003151 -118.220161 3,525 185 191 -704
2019-10-07 18:34:55 GMT 34.006210 -118.220009 3,550 178 192 -768
2019-10-07 18:34:52 GMT 34.012894 -118.220909 3,675 171 192 -704
2019-10-07 18:34:49 GMT 34.012894 -118.220909 3,650 172 192 -704
2019-10-07 18:34:46 GMT 34.014679 -118.221184 3,675 171 192 -704
2019-10-07 18:34:40 GMT 34.019955 -118.222221 3,750 169 193 -704
2019-10-07 18:34:35 GMT 34.024704 -118.223541 3,875 142 196 -768
2019-10-07 18:34:29 GMT 34.028755 -118.225761 3,875 150 194 -768
2019-10-07 18:34:26 GMT 34.031876 -118.228569 3,950 132 198 -768
2019-10-07 18:34:19 GMT 34.036011 -118.235313 4,025 108 208 -640
2019-10-07 18:34:15 GMT 34.037384 -118.239464 4,050 104 209 -576
2019-10-07 18:34:12 GMT 34.037842 -118.241867 4,075 100 211 -576
2019-10-07 18:34:07 GMT 34.038254 -118.246635 4,125 91 216 -640
2019-10-07 18:34:03 GMT 34.037926 -118.253174 4,200 83 222 -896
2019-10-07 18:33:55 GMT 34.037018 -118.261879 4,300 82 227 -1024
2019-10-07 18:33:52 GMT 34.036423 -118.267487 4,375 82 229 -960
2019-10-07 18:33:46 GMT 34.035690 -118.274460 4,450 82 229 -832
2019-10-07 18:33:43 GMT 34.034855 -118.282013 4,525 82 230 -832
2019-10-07 18:33:36 GMT 34.034225 -118.288055 4,600 82 230 -832
2019-10-07 18:33:32 GMT 34.033768 -118.292542 4,650 82 230 -832
2019-10-07 18:33:26 GMT 34.032990 -118.299881 4,725 82 230 -832
2019-10-07 18:33:22 GMT 34.032524 -118.304214 4,800 82 230 -832
2019-10-07 18:33:19 GMT 34.032120 -118.308014 4,800 82 230 -832
2019-10-07 18:33:15 GMT 34.031433 -118.314629 4,875 82 229 -832
2019-10-07 18:33:08 GMT 34.030010 -118.328362 5,150 83 229 -768
2019-10-07 18:33:03 GMT 34.030010 -118.328362 5,650 79 228 -1216
2019-10-07 18:32:59 GMT 34.029408 -118.335052 5,075 84 230 -832
2019-10-07 18:32:56 GMT 34.029053 -118.338844 5,150 83 229 -768
2019-10-07 18:32:51 GMT 34.028503 -118.345062 5,200 83 228 -832
2019-10-07 18:32:48 GMT 34.027962 -118.350281 5,375 81 227 -1216
2019-10-07 18:32:41 GMT 34.027222 -118.356720 5,350 81 228 -1088
2019-10-07 18:32:38 GMT 34.026661 -118.360977 5,425 80 228 -1216
2019-10-07 18:32:35 GMT 34.026241 -118.364067 5,525 79 228 -1216
2019-10-07 18:32:32 GMT 34.024521 -118.374535 5,650 78 228 -1216
2019-10-07 18:32:27 GMT 34.024521 -118.374535 5,625 78 228 -1216
2019-10-07 18:32:24 GMT 34.023773 -118.378716 5,725 77 229 -1216
2019-10-07 18:32:19 GMT 34.022888 -118.383751 5,800 77 229 -1152
2019-10-07 18:32:15 GMT 34.021305 -118.392853 6,050 78 231 -1344
2019-10-07 18:32:11 GMT 34.021305 -118.392853 5,925 78 229 -1024
2019-10-07 18:32:08 GMT 34.020237 -118.398911 6,025 78 231 -1344
2019-10-07 18:32:04 GMT 34.018982 -118.406387 6,125 78 232 -1344
2019-10-07 18:32:01 GMT 34.018982 -118.406387 6,150 78 232 -1344
2019-10-07 18:31:57 GMT 34.018112 -118.411545 6,250 78 233 -1280
2019-10-07 18:31:53 GMT 34.017025 -118.417969 6,375 78 233 -1280
2019-10-07 18:31:50 GMT 34.016605 -118.420601 6,375 78 233 -1280
2019-10-07 18:31:47 GMT 34.015953 -118.424210 6,450 78 233 -1216
2019-10-07 18:31:44 GMT 34.015022 -118.429359 6,525 77 235 -1280
2019-10-07 18:31:40 GMT 34.014278 -118.433533 6,600 77 235 -1280
2019-10-07 18:31:37 GMT 34.013397 -118.438446 6,675 78 235 -1280
2019-10-07 18:31:31 GMT 34.012417 -118.444466 6,750 79 234 -1216
2019-10-07 18:31:26 GMT 34.011482 -118.452248 6,900 84 235 -1152
2019-10-07 18:31:22 GMT 34.011154 -118.456779 7,150 90 236 -960
2019-10-07 18:31:16 GMT 34.011154 -118.465744 7,075 94 236 -1024
2019-10-07 18:31:12 GMT 34.011482 -118.470383 7,125 96 236 -1024
2019-10-07 18:31:05 GMT 34.012833 -118.485207 7,250 96 237 -960
2019-10-07 18:31:01 GMT 34.012833 -118.485207 7,300 96 237 -960
2019-10-07 18:30:58 GMT 34.013111 -118.488403 7,325 96 237 -960
2019-10-07 18:30:53 GMT 34.013718 -118.494499 7,400 96 238 -960
2019-10-07 18:30:48 GMT 34.014404 -118.501953 7,500 96 238 -960
2019-10-07 18:30:45 GMT 34.014744 -118.505798 7,550 96 238 -896
2019-10-07 18:30:41 GMT 34.015137 -118.509743 7,575 96 238 -896
2019-10-07 18:30:37 GMT 34.015686 -118.515800 7,650 96 238 -832
2019-10-07 18:30:34 GMT 34.016190 -118.521065 7,700 96 238 -832
2019-10-07 18:30:30 GMT 34.016647 -118.526337 7,775 96 238 -896
2019-10-07 18:30:27 GMT 34.016922 -118.528915 7,775 96 238 -896
2019-10-07 18:30:21 GMT 34.017723 -118.537788 7,875 96 238 -896
2019-10-07 18:30:17 GMT 34.018188 -118.542595 7,925 96 238 -896
2019-10-07 18:30:13 GMT 34.018707 -118.548141 8,025 96 238 -832
2019-10-07 18:30:09 GMT 34.019585 -118.557358 8,075 96 238 -832
2019-10-07 18:30:05 GMT 34.019585 -118.557358 8,200 96 238 -832
2019-10-07 18:30:00 GMT 34.020218 -118.564003 8,150 96 238 -832
2019-10-07 18:29:57 GMT 34.020950 -118.571960 8,325 96 236 -832
2019-10-07 18:29:51 GMT 34.021912 -118.581673 8,325 96 236 -832
2019-10-07 18:29:48 GMT 34.021912 -118.581673 8,350 96 236 -832
2019-10-07 18:29:45 GMT 34.022232 -118.584969 8,375 96 235 -832
2019-10-07 18:29:42 GMT 34.022938 -118.592606 8,425 96 234 -832
2019-10-07 18:29:39 GMT 34.022938 -118.592606 8,575 96 233 -832
2019-10-07 18:29:36 GMT 34.023376 -118.597023 8,500 96 233 -832
2019-10-07 18:29:33 GMT 34.023540 -118.598846 8,525 96 233 -832
2019-10-07 18:29:30 GMT 34.023972 -118.603806 8,575 96 233 -832
2019-10-07 18:29:24 GMT 34.024750 -118.612099 8,675 96 233 -832
2019-10-07 18:29:20 GMT 34.025253 -118.617310 8,700 96 234 -832
2019-10-07 18:29:13 GMT 34.026054 -118.625908 8,800 96 236 -832
2019-10-07 18:29:09 GMT 34.026520 -118.631172 8,875 96 239 -960
2019-10-07 18:29:02 GMT 34.027313 -118.640213 8,950 96 239 -960
2019-10-07 18:28:59 GMT 34.027863 -118.645279 9,025 98 241 -896
2019-10-07 18:28:55 GMT 34.028568 -118.650284 9,075 102 243 -640
2019-10-07 18:28:52 GMT 34.029419 -118.654251 9,100 107 244 -832
2019-10-07 18:28:47 GMT 34.030849 -118.659264 9,175 112 245 -960
2019-10-07 18:28:41 GMT 34.034500 -118.667252 9,250 124 249 -960
2019-10-07 18:28:38 GMT 34.037064 -118.671066 9,325 132 251 -1088
2019-10-07 18:28:32 GMT 34.042419 -118.677452 9,475 137 253 -1152
2019-10-07 18:28:25 GMT 34.047729 -118.683228 9,575 137 255 -1088
2019-10-07 18:28:19 GMT 34.053196 -118.689194 9,675 137 259 -1152
2019-10-07 18:28:15 GMT 34.055660 -118.691879 9,725 137 259 -1088
2019-10-07 18:28:09 GMT 34.061829 -118.698586 9,825 137 260 -1152
2019-10-07 18:28:04 GMT 34.065716 -118.702812 10,025 137 264 -1152
2019-10-07 18:27:58 GMT 34.071537 -118.709045 10,050 138 264 -1152
2019-10-07 18:27:54 GMT 34.075470 -118.713326 10,125 138 266 -1152
2019-10-07 18:27:48 GMT 34.081375 -118.719719 10,250 137 268 -1152
2019-10-07 18:27:45 GMT 34.083733 -118.722321 10,300 137 269 -1152
2019-10-07 18:27:37 GMT 34.091080 -118.730316 10,525 137 286 -1216
2019-10-07 18:27:34 GMT 34.093735 -118.733170 10,500 137 274 -1152
2019-10-07 18:27:26 GMT 34.101746 -118.741859 10,650 137 277 -1216
2019-10-07 18:27:22 GMT 34.105545 -118.746010 10,700 137 278 -1216
2019-10-07 18:27:19 GMT 34.107468 -118.748085 10,775 137 280 -1216
2019-10-07 18:27:16 GMT 34.111725 -118.752731 10,875 138 282 -1216
2019-10-07 18:27:12 GMT 34.118183 -118.759689 11,300 138 290 -1216
2019-10-07 18:27:05 GMT 34.123123 -118.765007 11,100 138 288 -1216
2019-10-07 18:27:00 GMT 34.126785 -118.768936 11,325 137 289 -1216
2019-10-07 18:26:56 GMT 34.134617 -118.777428 11,350 138 290 -1216
2019-10-07 18:26:50 GMT 34.139458 -118.782692 11,525 137 292 -1216
2019-10-07 18:26:43 GMT 34.144253 -118.788010 11,525 137 292 -1216
2019-10-07 18:26:40 GMT 34.147415 -118.791504 11,600 137 293 -1216
2019-10-07 18:26:36 GMT 34.151596 -118.796066 11,675 138 293 -1152
2019-10-07 18:26:32 GMT 34.155609 -118.800316 11,925 139 295 -1536
2019-10-07 18:26:28 GMT 34.158077 -118.802895 11,800 139 294 -1216
2019-10-07 18:26:25 GMT 34.162220 -118.807182 11,900 139 295 -1600
2019-10-07 18:26:22 GMT 34.165741 -118.810806 12,250 142 298 -1600
2019-10-07 18:26:19 GMT 34.169449 -118.814507 12,075 140 295 -1536
2019-10-07 18:26:11 GMT 34.177536 -118.822227 12,250 142 298 -1600
2019-10-07 18:26:08 GMT 34.181026 -118.825439 12,350 142 298 -1664
2019-10-07 18:26:02 GMT 34.186382 -118.830299 12,450 142 299 -1664
2019-10-07 18:25:59 GMT 34.190338 -118.833961 12,575 142 301 -1472
2019-10-07 18:25:52 GMT 34.198765 -118.841629 12,750 142 303 -1664
2019-10-07 18:25:49 GMT 34.204834 -118.847237 13,050 142 306 -1664
2019-10-07 18:25:40 GMT 34.212570 -118.854355 13,125 142 308 -1728
2019-10-07 18:25:36 GMT 34.217102 -118.858505 13,225 142 309 -1600
2019-10-07 18:25:29 GMT 34.224182 -118.865028 13,400 142 311 -1664
2019-10-07 18:25:25 GMT 34.228790 -118.869270 13,500 142 313 -1728
2019-10-07 18:25:21 GMT 34.234329 -118.874413 13,625 142 317 -1600
2019-10-07 18:25:17 GMT 34.237839 -118.877617 13,700 142 318 -1664
2019-10-07 18:25:14 GMT 34.242050 -118.881546 13,775 142 319 -1728
2019-10-07 18:25:10 GMT 34.247131 -118.886192 13,950 142 322 -1856
2019-10-07 18:25:07 GMT 34.250252 -118.889069 14,025 142 324 -1856
2019-10-07 18:25:03 GMT 34.255417 -118.893761 14,150 142 326 -1664
2019-10-07 18:24:58 GMT 34.259720 -118.897743 14,275 143 329 -1728
2019-10-07 18:24:55 GMT 34.263889 -118.901482 14,275 143 329 -1728
2019-10-07 18:24:52 GMT 34.268684 -118.905830 14,450 143 332 -1792
2019-10-07 18:24:49 GMT 34.272270 -118.909096 14,550 142 335 -1792
2019-10-07 18:24:46 GMT 34.276382 -118.912819 14,625 142 338 -1792
2019-10-07 18:24:40 GMT 34.288841 -118.924194 15,625 143 366 -1984
2019-10-07 18:24:35 GMT 34.288841 -118.924194 14,950 142 346 -1664
2019-10-07 18:24:32 GMT 34.293358 -118.928375 15,175 142 351 -2176
2019-10-07 18:24:27 GMT 34.300713 -118.935127 15,300 142 354 -1920
2019-10-07 18:24:24 GMT 34.304031 -118.938156 15,300 142 355 -1920
2019-10-07 18:24:20 GMT 34.309799 -118.943481 15,375 142 356 -1920
2019-10-07 18:24:15 GMT 34.315155 -118.948357 15,575 142 360 -1920
2019-10-07 18:24:09 GMT 34.323715 -118.956261 15,775 143 364 -1856
2019-10-07 18:24:04 GMT 34.331017 -118.962769 15,950 143 367 -2112
2019-10-07 18:23:59 GMT 34.338234 -118.969116 16,225 144 376 -1920
2019-10-07 18:23:56 GMT 34.341026 -118.971519 16,175 144 372 -1984
2019-10-07 18:23:52 GMT 34.346008 -118.975807 16,300 144 374 -1984
2019-10-07 18:23:49 GMT 34.351456 -118.980530 16,450 144 379 -2112
2019-10-07 18:23:46 GMT 34.355740 -118.984222 16,525 144 377 -2112
2019-10-07 18:23:42 GMT 34.360764 -118.988571 16,650 144 378 -1984
2019-10-07 18:23:39 GMT 34.366585 -118.993546 16,775 144 378 -2048
2019-10-07 18:23:36 GMT 34.370632 -118.997040 16,900 144 378 -1984
2019-10-07 18:23:32 GMT 34.376362 -119.002022 17,025 144 379 -2112
2019-10-07 18:23:27 GMT 34.381760 -119.006706 17,450 144 379 -2240
2019-10-07 18:23:24 GMT 34.386337 -119.010635 17,250 144 379 -2176
2019-10-07 18:23:21 GMT 34.392059 -119.015564 17,400 144 379 -2240
2019-10-07 18:23:13 GMT 34.403549 -119.025490 17,750 144 381 -2240
2019-10-07 18:23:10 GMT 34.406433 -119.027954 17,750 144 381 -2240
2019-10-07 18:23:07 GMT 34.412155 -119.032944 17,900 144 382 -1984
2019-10-07 18:23:03 GMT 34.418213 -119.038124 18,275 144 382 -1984
2019-10-07 18:23:00 GMT 34.421658 -119.041161 18,125 144 384 -2048
2019-10-07 18:22:57 GMT 34.425430 -119.044373 18,200 144 384 -2048
2019-10-07 18:22:54 GMT 34.430313 -119.048653 18,275 143 385 -2112
2019-10-07 18:22:49 GMT 34.437855 -119.055290 18,500 143 388 -2048
2019-10-07 18:22:44 GMT 34.444141 -119.060844 18,650 143 391 -2048
2019-10-07 18:22:38 GMT 34.453033 -119.068680 18,825 143 393 -2048
2019-10-07 18:22:32 GMT 34.460667 -119.075432 19,050 143 397 -2112
2019-10-07 18:22:29 GMT 34.467636 -119.081535 19,200 143 400 -2176
2019-10-07 18:22:22 GMT 34.476959 -119.089790 19,525 143 410 -2432
2019-10-07 18:22:17 GMT 34.486038 -119.097862 19,675 143 409 -2432
2019-10-07 18:22:06 GMT 34.502289 -119.112312 20,125 143 412 -3136
2019-10-07 18:21:58 GMT 34.515289 -119.123802 20,650 143 414 -2944
2019-10-07 18:21:55 GMT 34.518311 -119.126495 20,650 143 414 -2944
2019-10-07 18:21:50 GMT 34.526073 -119.133339 21,000 144 424 -1856
2019-10-07 18:21:47 GMT 34.531998 -119.138657 21,000 143 414 -1088
2019-10-07 18:21:44 GMT 34.535988 -119.142265 21,025 143 414 -896
2019-10-07 18:21:38 GMT 34.552280 -119.156738 21,175 143 423 -1536
2019-10-07 18:21:34 GMT 34.552280 -119.156738 21,200 144 423 -1792
2019-10-07 18:21:27 GMT 34.563873 -119.166756 21,475 144 430 -2240
2019-10-07 18:21:23 GMT 34.568436 -119.170708 21,575 144 434 -2304
2019-10-07 18:21:16 GMT 34.580864 -119.181458 21,975 144 439 -2304
2019-10-07 18:21:13 GMT 34.584869 -119.184898 22,025 144 440 -2304
2019-10-07 18:21:05 GMT 34.599392 -119.197426 22,300 144 445 -2304
2019-10-07 18:21:01 GMT 34.605240 -119.202499 22,400 144 447 -2368
2019-10-07 18:20:52 GMT 34.622131 -119.217018 22,850 144 453 -2432
2019-10-07 18:20:49 GMT 34.630508 -119.224190 23,075 144 449 -2368
2019-10-07 18:20:43 GMT 34.636307 -119.229179 23,300 144 440 -2432
2019-10-07 18:20:40 GMT 34.642406 -119.234390 23,350 144 429 -2240
2019-10-07 18:20:32 GMT 34.654930 -119.245262 23,650 144 429 -2240
2019-10-07 18:20:28 GMT 34.659805 -119.249474 23,750 144 427 -2240
2019-10-07 18:20:21 GMT 34.672531 -119.260574 24,075 144 422 -2240
2019-10-07 18:20:10 GMT 34.690384 -119.276207 24,500 144 426 -2240
2019-10-07 18:20:07 GMT 34.693588 -119.279015 24,500 144 426 -2240
2019-10-07 18:19:57 GMT 34.709999 -119.293266 24,875 144 429 -2304
2019-10-07 18:19:48 GMT 34.725548 -119.306831 25,350 144 431 -2496
2019-10-07 18:19:45 GMT 34.728107 -119.309067 25,800 144 431 -2496
2019-10-07 18:19:36 GMT 34.745705 -119.324570 25,800 143 435 -1856
2019-10-07 18:19:24 GMT 34.764000 -119.340881 26,100 143 440 -1856
2019-10-07 18:19:17 GMT 34.776901 -119.352386 26,350 143 445 -1984
2019-10-07 18:19:13 GMT 34.780575 -119.355637 26,450 143 447 -1984
2019-10-07 18:19:03 GMT 34.804783 -119.377213 26,900 143 455 -2048
2019-10-07 18:18:55 GMT 34.812321 -119.383904 27,050 143 458 -1984
2019-10-07 18:18:52 GMT 34.817863 -119.388771 27,150 143 462 -2368
2019-10-07 18:18:46 GMT 34.826340 -119.396332 27,325 143 465 -1728
2019-10-07 18:18:41 GMT 34.836575 -119.405479 27,600 143 470 -1920
2019-10-07 18:18:37 GMT 34.845383 -119.413315 27,650 143 478 -1920
2019-10-07 18:18:30 GMT 34.856827 -119.423576 27,800 143 492 -1664
2019-10-07 18:18:23 GMT 34.868835 -119.434319 28,050 143 494 -1920
2019-10-07 18:18:19 GMT 34.877728 -119.442268 28,250 143 500 -2624
2019-10-07 18:18:13 GMT 34.888157 -119.451546 28,475 143 506 -2112
2019-10-07 18:18:07 GMT 34.899216 -119.461517 28,975 142 517 -2752
2019-10-07 18:17:59 GMT 34.919678 -119.480408 29,100 142 519 -2752
2019-10-07 18:17:56 GMT 34.919678 -119.480408 29,150 142 519 -2752
2019-10-07 18:17:47 GMT 34.941238 -119.500420 29,700 142 523 -2880
2019-10-07 18:17:36 GMT 34.959286 -119.517174 30,125 142 525 -2752
2019-10-07 18:17:33 GMT 34.980652 -119.536964 30,275 142 525 -2752
2019-10-07 18:17:25 GMT 34.980652 -119.536964 30,575 142 524 -1984
2019-10-07 18:17:22 GMT 34.984543 -119.540558 30,650 142 524 -1984
2019-10-07 18:17:14 GMT 35.002720 -119.557457 30,900 142 523 -1536
2019-10-07 18:17:10 GMT 35.006973 -119.561409 30,950 142 523 -1152
2019-10-07 18:17:03 GMT 35.027618 -119.580574 31,000 142 525 -64
2019-10-07 18:16:50 GMT 35.046295 -119.598007 31,000 142 526 64
2019-10-07 18:16:47 GMT 35.054810 -119.605911 31,000 142 526 -64
2019-10-07 18:16:43 GMT 35.060631 -119.611298 31,000 142 526 -64
2019-10-07 18:16:40 GMT 35.067215 -119.617462 31,000 142 525 -64
2019-10-07 18:16:37 GMT 35.071838 -119.621773 31,000 142 525 0
2019-10-07 18:16:29 GMT 35.089600 -119.638313 31,000 142 525 0
2019-10-07 18:16:25 GMT 35.094223 -119.642624 31,000 142 525 0
2019-10-07 18:16:19 GMT 35.107742 -119.655251 31,000 142 525 -64
2019-10-07 18:16:14 GMT 35.115692 -119.662636 31,000 142 524 0
2019-10-07 18:16:08 GMT 35.131256 -119.677208 31,000 142 524 0
2019-10-07 18:16:02 GMT 35.137814 -119.683342 31,000 142 523 0
2019-10-07 18:15:56 GMT 35.153225 -119.697701 31,000 142 523 -64
2019-10-07 18:15:52 GMT 35.157833 -119.702049 31,000 142 523 64
2019-10-07 18:15:45 GMT 35.172405 -119.715675 31,000 142 523 -64
2019-10-07 18:15:42 GMT 35.179340 -119.722137 31,000 142 522 0
2019-10-07 18:15:35 GMT 35.198521 -119.740105 31,000 142 522 0
2019-10-07 18:15:31 GMT 35.198521 -119.740105 31,000 142 522 0
2019-10-07 18:15:27 GMT 35.208847 -119.749802 31,000 142 522 0
2019-10-07 18:15:24 GMT 35.213470 -119.754173 31,000 142 522 -64
2019-10-07 18:15:20 GMT 35.220337 -119.760620 31,000 142 522 -64
2019-10-07 18:15:14 GMT 35.230640 -119.770378 31,000 143 519 0
2019-10-07 18:15:11 GMT 35.237183 -119.776382 31,000 143 520 -64
2019-10-07 18:15:08 GMT 35.242279 -119.780899 31,000 146 516 128
2019-10-07 18:15:04 GMT 35.253452 -119.789841 31,000 148 514 64
2019-10-07 18:15:01 GMT 35.257549 -119.792702 31,000 151 511 0
2019-10-07 18:14:58 GMT 35.261738 -119.795448 31,000 168 491 -64
2019-10-07 18:14:52 GMT 35.276215 -119.803513 31,000 158 503 0
2019-10-07 18:14:48 GMT 35.284130 -119.807022 31,000 161 499 -64
2019-10-07 18:14:45 GMT 35.292480 -119.810204 31,000 166 493 -64
2019-10-07 18:14:42 GMT 35.298187 -119.812042 31,000 165 494 -64
2019-10-07 18:14:38 GMT 35.307171 -119.814384 31,000 170 488 0
2019-10-07 18:14:32 GMT 35.321777 -119.816780 31,000 175 482 128
2019-10-07 18:14:27 GMT 35.331192 -119.817245 31,000 179 478 64
2019-10-07 18:14:22 GMT 35.343483 -119.816658 31,000 185 472 -64
2019-10-07 18:14:16 GMT 35.355057 -119.815231 31,000 187 469 0
2019-10-07 18:14:10 GMT 35.369019 -119.813293 31,000 187 469 64
2019-10-07 18:14:05 GMT 35.378025 -119.812042 31,000 187 469 0
2019-10-07 18:14:00 GMT 35.391895 -119.810120 31,000 187 469 0
2019-10-07 18:13:56 GMT 35.401348 -119.808769 31,000 187 469 -64
2019-10-07 18:13:48 GMT 35.414749 -119.806885 31,000 187 469 -64
2019-10-07 18:13:45 GMT 35.423832 -119.805618 31,000 187 469 64
2019-10-07 18:13:36 GMT 35.441105 -119.803223 31,000 187 469 0
2019-10-07 18:13:33 GMT 35.450134 -119.801964 31,000 187 469 0
2019-10-07 18:13:27 GMT 35.462128 -119.800301 31,000 187 469 64
2019-10-07 18:13:23 GMT 35.471130 -119.799011 31,000 187 469 64
2019-10-07 18:13:20 GMT 35.476437 -119.798256 31,000 187 468 -64
2019-10-07 18:13:15 GMT 35.485931 -119.796967 31,000 187 469 -64
2019-10-07 18:13:10 GMT 35.500122 -119.794975 31,000 187 468 0
2019-10-07 18:13:05 GMT 35.508682 -119.793777 31,000 187 469 64
2019-10-07 18:12:59 GMT 35.532944 -119.790398 31,000 187 469 64
2019-10-07 18:12:54 GMT 35.532944 -119.790398 31,000 187 469 64
2019-10-07 18:12:48 GMT 35.543705 -119.788902 31,000 187 469 -64
2019-10-07 18:12:43 GMT 35.556015 -119.787140 31,000 187 469 -64
2019-10-07 18:12:39 GMT 35.571762 -119.784966 31,000 187 469 64
2019-10-07 18:12:33 GMT 35.579544 -119.783875 31,000 187 469 64
2019-10-07 18:12:29 GMT 35.585587 -119.783020 31,000 187 469 64
2019-10-07 18:12:26 GMT 35.603291 -119.780602 31,000 187 469 0
2019-10-07 18:12:22 GMT 35.603291 -119.780602 31,000 187 469 64
2019-10-07 18:12:18 GMT 35.608459 -119.779846 31,000 187 469 64
2019-10-07 18:12:15 GMT 35.623123 -119.777740 31,000 187 468 64
2019-10-07 18:12:12 GMT 35.633011 -119.776382 31,000 187 466 0
2019-10-07 18:12:07 GMT 35.633011 -119.776382 31,000 187 468 -64
2019-10-07 18:12:04 GMT 35.641617 -119.775124 31,000 187 468 -64
2019-10-07 18:11:56 GMT 35.658875 -119.772720 31,000 187 468 0
2019-10-07 18:11:52 GMT 35.665298 -119.771835 31,000 187 468 64
2019-10-07 18:11:48 GMT 35.682129 -119.769463 31,000 187 467 -64
2019-10-07 18:11:45 GMT 35.682129 -119.769463 31,000 187 467 -64
2019-10-07 18:11:42 GMT 35.686012 -119.768913 31,000 187 467 -64
2019-10-07 18:11:38 GMT 35.697556 -119.767342 31,000 187 467 0
2019-10-07 18:11:33 GMT 35.706161 -119.766083 31,000 187 466 0
2019-10-07 18:11:30 GMT 35.713341 -119.765121 31,000 187 466 0
2019-10-07 18:11:26 GMT 35.720322 -119.764122 31,000 187 465 0
2019-10-07 18:11:23 GMT 35.728050 -119.763077 31,000 187 465 0
2019-10-07 18:11:19 GMT 35.735321 -119.762016 31,000 187 465 64
2019-10-07 18:11:13 GMT 35.749695 -119.760017 31,000 187 464 -64
2019-10-07 18:11:09 GMT 35.761288 -119.758339 31,000 187 463 -64
2019-10-07 18:11:02 GMT 35.772858 -119.756760 31,000 187 463 0
2019-10-07 18:10:59 GMT 35.787369 -119.754700 31,000 187 463 -64
2019-10-07 18:10:52 GMT 35.795460 -119.753548 31,000 187 461 64
2019-10-07 18:10:45 GMT 35.809296 -119.751610 31,000 187 462 0
2019-10-07 18:10:42 GMT 35.817032 -119.750519 31,000 187 462 0
2019-10-07 18:10:39 GMT 35.821426 -119.749947 31,000 187 461 0
2019-10-07 18:10:34 GMT 35.830765 -119.748634 31,000 187 462 0
2019-10-07 18:10:28 GMT 35.847748 -119.746223 31,000 187 461 0
2019-10-07 18:10:24 GMT 35.854115 -119.745308 31,000 187 461 -64
2019-10-07 18:10:18 GMT 35.866638 -119.743553 31,000 187 460 64
2019-10-07 18:10:12 GMT 35.879105 -119.741760 31,000 187 460 0
2019-10-07 18:10:09 GMT 35.887772 -119.740517 31,000 187 458 -64
2019-10-07 18:10:05 GMT 35.900208 -119.738792 31,000 187 458 -64
2019-10-07 18:10:02 GMT 35.900208 -119.738792 31,000 187 458 0
2019-10-07 18:09:56 GMT 35.914120 -119.736832 31,000 187 457 0
2019-10-07 18:09:51 GMT 35.923828 -119.735474 31,000 187 457 0
2019-10-07 18:09:45 GMT 35.936047 -119.733734 31,000 187 457 0
2019-10-07 18:09:39 GMT 35.948662 -119.731926 31,000 187 456 -64
2019-10-07 18:09:35 GMT 35.958763 -119.730522 31,000 187 456 0
2019-10-07 18:09:31 GMT 35.963791 -119.729820 31,000 187 456 0
2019-10-07 18:09:28 GMT 35.973450 -119.728432 31,000 187 456 0
2019-10-07 18:09:24 GMT 35.982559 -119.727173 31,000 187 456 0
2019-10-07 18:09:18 GMT 35.994461 -119.725456 31,000 187 455 0
2019-10-07 18:09:12 GMT 36.004944 -119.723976 31,000 187 456 -64
2019-10-07 18:09:06 GMT 36.019234 -119.721931 31,000 187 456 64
2019-10-07 18:09:02 GMT 36.028313 -119.720650 31,000 187 454 0
2019-10-07 18:08:56 GMT 36.040421 -119.718933 31,000 187 454 0
2019-10-07 18:08:50 GMT 36.058182 -119.716415 31,000 187 454 64
2019-10-07 18:08:43 GMT 36.066067 -119.715332 31,000 187 453 64
2019-10-07 18:08:39 GMT 36.074890 -119.714066 31,000 187 453 -64
2019-10-07 18:08:36 GMT 36.080265 -119.713287 31,000 187 453 0
2019-10-07 18:08:33 GMT 36.087433 -119.712296 31,000 187 452 0
2019-10-07 18:08:29 GMT 36.096588 -119.710976 31,000 187 452 0
2019-10-07 18:08:26 GMT 36.102844 -119.710129 31,000 187 452 0
2019-10-07 18:08:21 GMT 36.111603 -119.708862 31,000 187 452 64
2019-10-07 18:08:18 GMT 36.119511 -119.707733 31,000 187 452 0
2019-10-07 18:08:15 GMT 36.127003 -119.706680 31,000 187 452 0
2019-10-07 18:08:10 GMT 36.133705 -119.705688 31,000 187 452 0
2019-10-07 18:08:06 GMT 36.144928 -119.704109 31,000 187 452 0
2019-10-07 18:08:03 GMT 36.149094 -119.703484 31,000 187 452 -64
2019-10-07 18:08:00 GMT 36.158249 -119.702225 31,000 187 452 -64
2019-10-07 18:07:55 GMT 36.168091 -119.700790 31,000 187 452 0
2019-10-07 18:07:52 GMT 36.172394 -119.700165 31,000 187 452 0
2019-10-07 18:07:47 GMT 36.181503 -119.698906 31,000 187 452 0
2019-10-07 18:07:44 GMT 36.188641 -119.697853 31,000 187 452 0
2019-10-07 18:07:41 GMT 36.193954 -119.697128 31,000 187 452 64
2019-10-07 18:07:36 GMT 36.205673 -119.695412 31,000 187 452 -64
2019-10-07 18:07:32 GMT 36.215515 -119.694038 31,000 187 452 64
2019-10-07 18:07:25 GMT 36.228195 -119.692207 31,000 187 451 -64
2019-10-07 18:07:21 GMT 36.238590 -119.690727 31,000 187 451 0
2019-10-07 18:07:14 GMT 36.249756 -119.689117 31,000 187 451 -64
2019-10-07 18:07:10 GMT 36.260983 -119.687515 31,000 187 451 -64
2019-10-07 18:07:03 GMT 36.276306 -119.685349 31,000 187 449 0
2019-10-07 18:06:58 GMT 36.285004 -119.684128 31,000 187 449 -64
2019-10-07 18:06:50 GMT 36.301987 -119.681686 31,000 187 449 0
2019-10-07 18:06:47 GMT 36.306931 -119.681000 31,000 187 449 -64
2019-10-07 18:06:40 GMT 36.320206 -119.679108 31,000 187 449 0
2019-10-07 18:06:37 GMT 36.329739 -119.677757 31,000 187 449 -64
2019-10-07 18:06:30 GMT 36.342407 -119.675964 31,000 187 449 64
2019-10-07 18:06:27 GMT 36.349571 -119.674950 31,000 187 449 -64
2019-10-07 18:06:19 GMT 36.364468 -119.672844 31,000 187 450 -64
2019-10-07 18:06:16 GMT 36.371429 -119.671844 31,000 187 450 0
2019-10-07 18:06:13 GMT 36.378799 -119.670815 31,000 187 450 64
2019-10-07 18:06:08 GMT 36.387650 -119.669518 31,000 187 449 -128
2019-10-07 18:06:05 GMT 36.393471 -119.668694 31,000 187 450 64
2019-10-07 18:06:01 GMT 36.401756 -119.667526 31,000 187 451 -64
2019-10-07 18:05:57 GMT 36.412949 -119.665947 31,000 187 450 -64
2019-10-07 18:05:54 GMT 36.418140 -119.665192 31,000 187 450 64
2019-10-07 18:05:50 GMT 36.426132 -119.664062 31,000 187 450 64
2019-10-07 18:05:44 GMT 36.439453 -119.662170 31,000 187 450 0
2019-10-07 18:05:35 GMT 36.457489 -119.659592 31,000 187 450 64
2019-10-07 18:05:32 GMT 36.463810 -119.658646 31,000 187 450 0
2019-10-07 18:05:27 GMT 36.473679 -119.657242 31,000 187 450 -64
2019-10-07 18:05:22 GMT 36.484085 -119.655762 31,000 187 450 64
2019-10-07 18:05:14 GMT 36.499420 -119.653564 31,000 187 450 0
2019-10-07 18:05:11 GMT 36.506870 -119.652512 31,000 187 451 64
2019-10-07 18:05:03 GMT 36.529724 -119.649239 31,000 187 451 128
2019-10-07 18:05:00 GMT 36.529724 -119.649239 31,000 187 451 128
2019-10-07 18:04:51 GMT 36.547897 -119.646606 31,000 187 452 64
2019-10-07 18:04:48 GMT 36.552979 -119.645866 31,000 187 452 0
2019-10-07 18:04:43 GMT 36.566254 -119.643913 31,000 187 452 -64
2019-10-07 18:04:38 GMT 36.574631 -119.642776 31,000 187 453 0
2019-10-07 18:04:32 GMT 36.586708 -119.640999 31,000 187 454 64
2019-10-07 18:04:28 GMT 36.610168 -119.637604 31,000 187 456 0
2019-10-07 18:04:22 GMT 36.610168 -119.637604 31,000 187 457 -64
2019-10-07 18:04:17 GMT 36.618988 -119.636368 31,000 187 458 0
2019-10-07 18:04:10 GMT 36.631668 -119.634537 31,000 187 458 0
2019-10-07 18:04:07 GMT 36.641357 -119.633163 31,000 187 458 0
2019-10-07 18:03:58 GMT 36.659454 -119.630524 31,000 187 458 0
2019-10-07 18:03:54 GMT 36.665798 -119.629601 31,000 187 458 64
2019-10-07 18:03:50 GMT 36.676300 -119.628067 31,000 187 458 0
2019-10-07 18:03:45 GMT 36.687241 -119.626465 31,000 187 457 0
2019-10-07 18:03:39 GMT 36.699455 -119.624695 31,000 187 457 -64
2019-10-07 18:03:32 GMT 36.712910 -119.622765 31,000 187 457 64
2019-10-07 18:03:29 GMT 36.719879 -119.621719 31,000 187 457 0
2019-10-07 18:03:25 GMT 36.728039 -119.620544 31,000 187 457 0
2019-10-07 18:03:22 GMT 36.734207 -119.619598 31,000 187 457 0
2019-10-07 18:03:17 GMT 36.744461 -119.618111 31,000 187 457 -64
2019-10-07 18:03:14 GMT 36.750320 -119.617249 31,000 187 457 64
2019-10-07 18:03:11 GMT 36.758999 -119.615982 31,000 187 457 0
2019-10-07 18:03:08 GMT 36.765888 -119.614929 31,000 187 457 -64
2019-10-07 18:03:04 GMT 36.771973 -119.614044 31,000 187 457 0
2019-10-07 18:03:00 GMT 36.781670 -119.612595 31,000 188 457 0
2019-10-07 18:02:57 GMT 36.786484 -119.611816 31,000 188 457 -64
2019-10-07 18:02:54 GMT 36.795170 -119.610489 31,000 188 457 0
2019-10-07 18:02:51 GMT 36.800335 -119.609673 31,000 188 457 0
2019-10-07 18:02:47 GMT 36.809830 -119.608269 31,000 187 457 0
2019-10-07 18:02:40 GMT 36.823051 -119.606285 31,000 187 457 64
2019-10-07 18:02:36 GMT 36.831341 -119.605232 31,000 186 459 0
2019-10-07 18:02:30 GMT 36.854828 -119.602547 31,000 185 459 0
2019-10-07 18:02:26 GMT 36.854828 -119.602547 31,000 185 460 64
2019-10-07 18:02:20 GMT 36.863739 -119.601707 31,000 184 460 64
2019-10-07 18:02:17 GMT 36.871811 -119.601028 31,000 182 460 64
2019-10-07 18:02:14 GMT 36.878170 -119.600571 31,000 184 460 -64
2019-10-07 18:02:08 GMT 36.891811 -119.599731 31,000 183 460 -64
2019-10-07 18:02:04 GMT 36.899918 -119.599327 31,000 182 460 -64
2019-10-07 18:01:57 GMT 36.915646 -119.598778 31,000 182 460 64
2019-10-07 18:01:53 GMT 36.923767 -119.598633 31,000 181 460 -64
2019-10-07 18:01:46 GMT 36.939480 -119.598366 31,000 181 458 64
2019-10-07 18:01:42 GMT 36.946472 -119.598221 31,000 181 458 64
2019-10-07 18:01:33 GMT 36.966843 -119.597809 31,000 181 456 0
2019-10-07 18:01:30 GMT 36.971237 -119.597694 31,000 181 456 0
2019-10-07 18:01:21 GMT 36.990223 -119.597343 31,000 181 455 -64
2019-10-07 18:01:18 GMT 36.996880 -119.597229 31,000 181 454 64
2019-10-07 18:01:14 GMT 37.006187 -119.597107 31,000 181 454 0
2019-10-07 18:01:11 GMT 37.011658 -119.596992 31,000 181 454 0
2019-10-07 18:01:07 GMT 37.018665 -119.596870 31,000 181 454 0
2019-10-07 18:01:00 GMT 37.035095 -119.596527 31,000 181 454 0
2019-10-07 18:00:56 GMT 37.043991 -119.596390 31,000 179 456 0
2019-10-07 18:00:49 GMT 37.055767 -119.596573 31,000 164 470 -64
2019-10-07 18:00:44 GMT 37.069363 -119.597649 31,000 174 461 0
2019-10-07 18:00:40 GMT 37.078716 -119.599022 31,000 171 464 0
2019-10-07 18:00:32 GMT 37.092312 -119.602005 31,000 167 467 -128
2019-10-07 18:00:28 GMT 37.099899 -119.604156 31,000 162 472 0
2019-10-07 18:00:24 GMT 37.110397 -119.607803 31,000 162 473 0
2019-10-07 18:00:21 GMT 37.117905 -119.610840 31,000 160 474 0
2019-10-07 18:00:18 GMT 37.122757 -119.613007 31,000 159 475 0
2019-10-07 18:00:13 GMT 37.134338 -119.618965 31,000 155 479 64
2019-10-07 18:00:08 GMT 37.144218 -119.624931 31,000 152 482 64
2019-10-07 18:00:00 GMT 37.158417 -119.634842 31,000 149 485 0
2019-10-07 17:59:57 GMT 37.164558 -119.639320 31,000 149 485 0
2019-10-07 17:59:51 GMT 37.187138 -119.655800 31,000 149 485 -64
2019-10-07 17:59:45 GMT 37.187138 -119.655800 31,000 149 485 0
2019-10-07 17:59:40 GMT 37.207672 -119.670799 31,000 149 485 0
2019-10-07 17:59:35 GMT 37.207672 -119.670799 31,000 149 485 64
2019-10-07 17:59:32 GMT 37.213120 -119.674774 31,000 149 484 64
2019-10-07 17:59:28 GMT 37.219254 -119.679276 31,000 149 484 64
2019-10-07 17:59:23 GMT 37.232437 -119.688911 31,000 149 484 64
2019-10-07 17:59:18 GMT 37.241234 -119.695389 31,000 149 484 64
2019-10-07 17:59:14 GMT 37.247562 -119.699989 31,000 149 485 -64
2019-10-07 17:59:11 GMT 37.254547 -119.705124 31,000 149 484 -64
2019-10-07 17:59:07 GMT 37.262650 -119.711060 31,000 149 484 0
2019-10-07 17:59:04 GMT 37.267273 -119.714455 31,000 149 485 -64
2019-10-07 17:59:01 GMT 37.274277 -119.719597 31,000 149 485 -64
2019-10-07 17:58:56 GMT 37.283966 -119.726677 31,000 149 485 0
2019-10-07 17:58:50 GMT 37.295837 -119.735374 31,000 149 485 -64
2019-10-07 17:58:42 GMT 37.309982 -119.745773 31,000 149 486 -64
2019-10-07 17:58:39 GMT 37.317436 -119.751213 31,000 149 486 0
2019-10-07 17:58:31 GMT 37.330658 -119.760887 31,000 149 486 -64
2019-10-07 17:58:26 GMT 37.339226 -119.767220 31,000 149 486 0
2019-10-07 17:58:23 GMT 37.347790 -119.773483 31,000 149 486 0
2019-10-07 17:58:15 GMT 37.361012 -119.783218 31,000 149 486 64
2019-10-07 17:58:09 GMT 37.375351 -119.793755 31,000 149 485 64
2019-10-07 17:58:05 GMT 37.381214 -119.798088 31,000 149 485 0
2019-10-07 17:58:01 GMT 37.389732 -119.804298 31,000 149 484 64
2019-10-07 17:57:58 GMT 37.396317 -119.809181 31,000 149 484 64
2019-10-07 17:57:54 GMT 37.402908 -119.814026 31,000 149 483 0
2019-10-07 17:57:50 GMT 37.411381 -119.820236 31,000 149 482 -64
2019-10-07 17:57:47 GMT 37.415634 -119.823380 31,000 149 482 0
2019-10-07 17:57:42 GMT 37.424461 -119.829849 31,000 149 480 -64
2019-10-07 17:57:38 GMT 37.434814 -119.837524 31,000 149 479 64
2019-10-07 17:57:35 GMT 37.438660 -119.840324 31,000 149 477 64
2019-10-07 17:57:31 GMT 37.447411 -119.846809 31,000 149 476 64
2019-10-07 17:57:28 GMT 37.454254 -119.851822 31,000 149 474 64
2019-10-07 17:57:21 GMT 37.467453 -119.861603 31,000 149 471 64
2019-10-07 17:57:15 GMT 37.479492 -119.870422 31,000 149 469 64
2019-10-07 17:57:08 GMT 37.491989 -119.879654 31,000 149 465 64
2019-10-07 17:57:03 GMT 37.498077 -119.884155 31,000 149 453 128
2019-10-07 17:56:59 GMT 37.508423 -119.891815 31,000 149 461 0
2019-10-07 17:56:52 GMT 37.519100 -119.899651 31,000 149 459 -64
2019-10-07 17:56:48 GMT 37.527855 -119.906158 31,025 149 455 64
2019-10-07 17:56:44 GMT 37.534698 -119.911217 31,000 149 453 128
2019-10-07 17:56:35 GMT 37.551689 -119.923714 31,000 149 448 -128
2019-10-07 17:56:31 GMT 37.564911 -119.933479 30,900 149 431 320
2019-10-07 17:56:23 GMT 37.574066 -119.940254 31,000 149 441 192
2019-10-07 17:56:20 GMT 37.578323 -119.943413 31,000 149 441 256
2019-10-07 17:56:13 GMT 37.590607 -119.952492 30,950 149 437 384
2019-10-07 17:56:09 GMT 37.595123 -119.955803 30,925 149 436 320
2019-10-07 17:56:04 GMT 37.605560 -119.963516 30,900 149 433 320
2019-10-07 17:56:01 GMT 37.611740 -119.968132 30,900 149 432 320
2019-10-07 17:55:58 GMT 37.614532 -119.970177 30,900 149 431 320
2019-10-07 17:55:55 GMT 37.621609 -119.975418 30,875 149 429 256
2019-10-07 17:55:51 GMT 37.627895 -119.980080 30,850 149 427 192
2019-10-07 17:55:45 GMT 37.637486 -119.987183 30,825 149 424 384
2019-10-07 17:55:37 GMT 37.651634 -119.997688 30,725 149 421 704
2019-10-07 17:55:34 GMT 37.656197 -120.001038 30,700 149 420 768
2019-10-07 17:55:29 GMT 37.664749 -120.007347 30,650 149 419 960
2019-10-07 17:55:26 GMT 37.669418 -120.010849 30,600 149 418 1088
2019-10-07 17:55:22 GMT 37.675751 -120.015541 30,525 149 417 1088
2019-10-07 17:55:18 GMT 37.683426 -120.021194 30,450 149 417 1280
2019-10-07 17:55:15 GMT 37.687759 -120.024445 30,375 149 417 1472
2019-10-07 17:55:12 GMT 37.692764 -120.028145 30,300 149 417 1536
2019-10-07 17:55:08 GMT 37.701077 -120.034355 30,175 149 418 1536
2019-10-07 17:55:04 GMT 37.706772 -120.038551 30,100 149 419 1600
2019-10-07 17:55:00 GMT 37.712433 -120.042770 30,000 149 419 1600
2019-10-07 17:54:53 GMT 37.724445 -120.051666 29,800 149 419 1600
2019-10-07 17:54:50 GMT 37.731007 -120.056564 29,725 149 419 1536
2019-10-07 17:54:42 GMT 37.743530 -120.065842 29,550 149 420 1536
2019-10-07 17:54:39 GMT 37.749435 -120.070221 29,425 149 420 1536
2019-10-07 17:54:29 GMT 37.772671 -120.087555 29,200 149 420 1600
2019-10-07 17:54:26 GMT 37.772671 -120.087555 29,075 149 420 1536
2019-10-07 17:54:18 GMT 37.781937 -120.094475 28,925 149 420 1536
2019-10-07 17:54:14 GMT 37.788780 -120.099556 28,825 149 420 1600
2019-10-07 17:54:08 GMT 37.800522 -120.108269 28,625 149 420 1536
2019-10-07 17:54:05 GMT 37.805878 -120.112244 28,550 149 420 1600
2019-10-07 17:54:00 GMT 37.814754 -120.118896 28,450 149 420 1536
2019-10-07 17:53:57 GMT 37.818993 -120.122002 28,350 149 420 1536
2019-10-07 17:53:53 GMT 37.826660 -120.127785 28,225 149 420 1536
2019-10-07 17:53:49 GMT 37.833893 -120.133163 27,375 149 436 1088
2019-10-07 17:53:45 GMT 37.837418 -120.135788 28,075 149 420 1536
2019-10-07 17:53:42 GMT 37.844788 -120.141281 27,950 149 421 1536
2019-10-07 17:53:35 GMT 37.854511 -120.148514 27,775 149 421 1536
2019-10-07 17:53:32 GMT 37.861912 -120.154068 27,675 149 425 1536
2019-10-07 17:53:24 GMT 37.874760 -120.163620 27,500 149 434 1344
2019-10-07 17:53:20 GMT 37.879696 -120.167381 27,450 149 435 1280
2019-10-07 17:53:17 GMT 37.887379 -120.173058 27,375 149 436 1088
2019-10-07 17:53:13 GMT 37.898502 -120.181412 27,300 149 435 832
2019-10-07 17:53:10 GMT 37.902645 -120.184517 27,250 143 435 768
2019-10-07 17:53:03 GMT 37.911804 -120.191544 27,175 146 435 768
2019-10-07 17:52:59 GMT 37.918335 -120.196999 27,025 140 435 512
2019-10-07 17:52:55 GMT 37.923294 -120.201416 27,075 136 437 -64
2019-10-07 17:52:51 GMT 37.931183 -120.209000 27,025 141 436 576
2019-10-07 17:52:48 GMT 37.935333 -120.213341 27,025 139 436 448
2019-10-07 17:52:45 GMT 37.938400 -120.216667 27,000 139 436 384
2019-10-07 17:52:42 GMT 37.943802 -120.222923 27,000 125 435 64
2019-10-07 17:52:39 GMT 37.953201 -120.234909 27,000 132 436 64
2019-10-07 17:52:36 GMT 37.953201 -120.234909 27,000 132 436 64
2019-10-07 17:52:28 GMT 37.962185 -120.247986 27,000 128 436 64
2019-10-07 17:52:24 GMT 37.968338 -120.258041 27,000 126 435 -64
2019-10-07 17:52:17 GMT 37.975754 -120.271194 27,000 125 434 64
2019-10-07 17:52:13 GMT 37.982948 -120.284111 27,000 125 434 -64
2019-10-07 17:52:08 GMT 37.992725 -120.301666 27,000 125 435 64
2019-10-07 17:52:03 GMT 37.992725 -120.301666 27,000 125 435 0
2019-10-07 17:51:56 GMT 38.000591 -120.315819 27,000 125 436 64
2019-10-07 17:51:52 GMT 38.005920 -120.325424 27,000 125 436 64
2019-10-07 17:51:45 GMT 38.014297 -120.340500 27,000 125 435 -64
2019-10-07 17:51:41 GMT 38.017769 -120.346748 27,000 125 435 -64
2019-10-07 17:51:37 GMT 38.023773 -120.357613 27,000 124 435 0
2019-10-07 17:51:33 GMT 38.027206 -120.363876 27,000 124 432 0
2019-10-07 17:51:30 GMT 38.031326 -120.371353 27,000 124 431 0
2019-10-07 17:51:27 GMT 38.034485 -120.377136 27,000 124 428 -64
2019-10-07 17:51:24 GMT 38.037643 -120.382866 27,000 124 425 -64
2019-10-07 17:51:19 GMT 38.043697 -120.393974 27,025 124 422 -64
2019-10-07 17:51:14 GMT 38.049591 -120.404839 27,000 124 421 192
2019-10-07 17:51:11 GMT 38.052704 -120.410393 26,950 126 417 960
2019-10-07 17:51:08 GMT 38.055542 -120.415237 26,900 126 416 1280
2019-10-07 17:51:03 GMT 38.060120 -120.422951 26,800 127 416 1792
2019-10-07 17:51:00 GMT 38.064240 -120.429909 26,700 127 417 2048
2019-10-07 17:50:57 GMT 38.068279 -120.436668 26,575 127 417 2304
2019-10-07 17:50:53 GMT 38.073669 -120.445625 26,400 127 419 2496
2019-10-07 17:50:46 GMT 38.081223 -120.458252 26,175 127 421 1728
2019-10-07 17:50:39 GMT 38.088272 -120.470055 26,050 127 419 1024
2019-10-07 17:50:36 GMT 38.093445 -120.478706 25,950 127 417 1472
2019-10-07 17:50:33 GMT 38.095047 -120.481445 25,925 127 418 1280
2019-10-07 17:50:29 GMT 38.100906 -120.491211 25,800 127 417 1728
2019-10-07 17:50:26 GMT 38.104404 -120.497093 25,675 127 417 1792
2019-10-07 17:50:23 GMT 38.106949 -120.501381 25,650 127 417 1792
2019-10-07 17:50:19 GMT 38.113037 -120.511543 25,525 127 417 1536
2019-10-07 17:50:15 GMT 38.116745 -120.517799 25,400 127 416 1408
2019-10-07 17:50:12 GMT 38.119492 -120.522354 25,375 127 416 1408
2019-10-07 17:50:07 GMT 38.129959 -120.539963 25,125 127 412 1920
2019-10-07 17:50:01 GMT 38.132290 -120.543846 25,125 127 413 1664
2019-10-07 17:49:56 GMT 38.142902 -120.561638 24,825 127 413 1664
2019-10-07 17:49:53 GMT 38.145088 -120.565338 24,825 127 413 1664
2019-10-07 17:49:47 GMT 38.150303 -120.574059 24,675 127 412 1792
2019-10-07 17:49:44 GMT 38.153229 -120.578979 24,600 127 412 1792
2019-10-07 17:49:39 GMT 38.158356 -120.587570 24,475 127 412 1792
2019-10-07 17:49:33 GMT 38.165222 -120.599144 24,300 127 412 1920
2019-10-07 17:49:30 GMT 38.169575 -120.606476 24,150 126 411 1920
2019-10-07 17:49:27 GMT 38.172321 -120.611137 24,100 126 411 1856
2019-10-07 17:49:23 GMT 38.177582 -120.620010 23,925 126 410 1792
2019-10-07 17:49:20 GMT 38.180695 -120.625206 23,900 126 410 1792
2019-10-07 17:49:16 GMT 38.184708 -120.631912 23,800 126 410 1792
2019-10-07 17:49:12 GMT 38.190399 -120.641510 23,625 127 409 1728
2019-10-07 17:49:09 GMT 38.193604 -120.646889 23,550 126 409 1664
2019-10-07 17:49:06 GMT 38.196995 -120.652695 23,475 127 408 1600
2019-10-07 17:49:01 GMT 38.202164 -120.661324 23,350 127 407 1536
2019-10-07 17:48:58 GMT 38.206539 -120.668694 23,250 126 405 1600
2019-10-07 17:48:54 GMT 38.209488 -120.673653 23,175 126 405 1600
2019-10-07 17:48:50 GMT 38.215805 -120.684288 23,000 126 404 1600
2019-10-07 17:48:46 GMT 38.219620 -120.690727 22,950 126 402 1664
2019-10-07 17:48:43 GMT 38.221855 -120.694550 22,900 126 402 1728
2019-10-07 17:48:39 GMT 38.227673 -120.704338 22,725 127 402 2048
2019-10-07 17:48:34 GMT 38.232563 -120.712639 22,550 126 401 2368
2019-10-07 17:48:28 GMT 38.239265 -120.723984 22,325 126 402 2304
2019-10-07 17:48:24 GMT 38.244572 -120.732880 22,150 126 402 2368
2019-10-07 17:48:16 GMT 38.251602 -120.744713 21,925 126 402 2176
2019-10-07 17:48:13 GMT 38.256088 -120.752312 21,775 126 402 2176
2019-10-07 17:48:10 GMT 38.258331 -120.756111 21,700 126 402 2176
2019-10-07 17:48:05 GMT 38.264145 -120.765923 21,450 127 402 2112
2019-10-07 17:48:02 GMT 38.268173 -120.772705 21,450 127 402 2112
2019-10-07 17:47:59 GMT 38.270641 -120.776825 21,300 126 401 2048
2019-10-07 17:47:52 GMT 38.280212 -120.793037 20,825 126 399 2176
2019-10-07 17:47:49 GMT 38.283325 -120.798363 20,925 126 399 2048
2019-10-07 17:47:44 GMT 38.288425 -120.806976 20,675 126 397 2240
2019-10-07 17:47:41 GMT 38.292206 -120.813316 20,675 126 397 2240
2019-10-07 17:47:37 GMT 38.297012 -120.821442 20,500 126 397 2240
2019-10-07 17:47:31 GMT 38.303284 -120.832024 20,100 126 395 1792
2019-10-07 17:47:25 GMT 38.309235 -120.842148 20,125 126 396 1792
2019-10-07 17:47:20 GMT 38.314682 -120.851418 19,975 126 393 1792
2019-10-07 17:47:14 GMT 38.321896 -120.863640 19,750 126 392 2176
2019-10-07 17:47:10 GMT 38.331390 -120.879700 19,525 126 390 2176
2019-10-07 17:47:05 GMT 38.331390 -120.879700 19,425 126 390 2368
2019-10-07 17:47:01 GMT 38.334511 -120.885017 19,300 126 390 2240
2019-10-07 17:46:58 GMT 38.346661 -120.905556 19,075 126 390 2240
2019-10-07 17:46:52 GMT 38.346661 -120.905556 18,900 126 388 2240
2019-10-07 17:46:48 GMT 38.349426 -120.910271 18,800 126 388 2112
2019-10-07 17:46:42 GMT 38.356750 -120.922714 18,575 126 387 2176
2019-10-07 17:46:38 GMT 38.360962 -120.929901 18,425 126 385 2240
2019-10-07 17:46:31 GMT 38.368542 -120.942696 18,150 126 385 2368
2019-10-07 17:46:26 GMT 38.373367 -120.950943 17,975 126 384 2368
2019-10-07 17:46:21 GMT 38.379154 -120.960785 17,775 126 383 2304
2019-10-07 17:46:16 GMT 38.384399 -120.969696 17,575 126 382 2304
2019-10-07 17:46:13 GMT 38.386837 -120.973801 17,475 126 379 2304
2019-10-07 17:46:09 GMT 38.391220 -120.981270 17,275 126 380 2240
2019-10-07 17:46:06 GMT 38.395477 -120.988579 17,150 126 380 2368
2019-10-07 17:46:02 GMT 38.398148 -120.993088 17,025 126 379 2304
2019-10-07 17:45:59 GMT 38.402386 -121.000313 16,925 126 379 2304
2019-10-07 17:45:52 GMT 38.409554 -121.012497 16,475 126 377 2368
2019-10-07 17:45:47 GMT 38.413971 -121.020020 16,500 126 376 2304
2019-10-07 17:45:43 GMT 38.418549 -121.027779 16,325 126 375 2304
2019-10-07 17:45:39 GMT 38.421703 -121.033203 16,200 126 375 2368
2019-10-07 17:45:36 GMT 38.430408 -121.048035 15,875 126 374 2432
2019-10-07 17:45:31 GMT 38.430408 -121.048035 15,575 126 373 2496
2019-10-07 17:45:25 GMT 38.437683 -121.060379 15,575 126 373 2496
2019-10-07 17:45:21 GMT 38.441952 -121.067627 15,400 126 372 2496
2019-10-07 17:45:14 GMT 38.449127 -121.079842 15,100 126 372 2688
2019-10-07 17:45:10 GMT 38.453339 -121.087067 14,750 126 371 2368
2019-10-07 17:45:02 GMT 38.460754 -121.099724 14,625 126 370 2176
2019-10-07 17:44:58 GMT 38.465698 -121.108147 14,475 126 369 2304
2019-10-07 17:44:51 GMT 38.471981 -121.118835 14,225 126 368 2304
2019-10-07 17:44:48 GMT 38.483292 -121.138245 13,825 126 365 2176
2019-10-07 17:44:40 GMT 38.483292 -121.138245 13,825 126 363 2240
2019-10-07 17:44:37 GMT 38.486969 -121.144531 13,600 126 363 2368
2019-10-07 17:44:31 GMT 38.492798 -121.154480 13,450 126 361 2432
2019-10-07 17:44:28 GMT 38.494602 -121.157532 13,275 126 360 2432
2019-10-07 17:44:24 GMT 38.500191 -121.167114 13,150 126 359 2496
2019-10-07 17:44:18 GMT 38.505569 -121.176331 12,925 126 358 2368
2019-10-07 17:44:14 GMT 38.509552 -121.183083 12,825 126 358 2304
2019-10-07 17:44:10 GMT 38.513855 -121.190483 12,600 126 355 2496
2019-10-07 17:44:07 GMT 38.516235 -121.194489 12,500 126 354 2496
2019-10-07 17:44:04 GMT 38.519184 -121.199524 12,425 126 354 2560
2019-10-07 17:43:58 GMT 38.524166 -121.208130 12,125 126 353 3072
2019-10-07 17:43:55 GMT 38.528320 -121.215263 11,900 126 352 3136
2019-10-07 17:43:52 GMT 38.530243 -121.218605 11,800 126 351 2816
2019-10-07 17:43:48 GMT 38.534222 -121.225464 11,650 126 351 2496
2019-10-07 17:43:45 GMT 38.538620 -121.233055 11,500 126 344 1472
2019-10-07 17:43:41 GMT 38.541046 -121.237175 11,425 126 344 1472
2019-10-07 17:43:38 GMT 38.544556 -121.243164 11,350 126 340 1344
2019-10-07 17:43:34 GMT 38.547955 -121.248962 11,250 126 335 1344
2019-10-07 17:43:30 GMT 38.551163 -121.254494 11,225 126 334 1344
2019-10-07 17:43:27 GMT 38.554657 -121.260376 11,100 126 325 1152
2019-10-07 17:43:22 GMT 38.559357 -121.268372 11,000 126 320 1280
2019-10-07 17:43:18 GMT 38.561966 -121.272881 10,950 126 316 1344
2019-10-07 17:43:14 GMT 38.565445 -121.278854 10,850 126 311 1408
2019-10-07 17:43:10 GMT 38.571602 -121.289490 10,700 126 306 1664
2019-10-07 17:43:06 GMT 38.571602 -121.289490 10,550 126 297 2368
2019-10-07 17:43:02 GMT 38.576157 -121.297302 10,425 126 297 2496
2019-10-07 17:42:55 GMT 38.581375 -121.306259 10,175 126 293 3008
2019-10-07 17:42:52 GMT 38.584404 -121.311523 9,900 126 291 3392
2019-10-07 17:42:49 GMT 38.587372 -121.316650 9,700 126 291 3712
2019-10-07 17:42:45 GMT 38.590221 -121.321472 9,500 126 292 3712
2019-10-07 17:42:40 GMT 38.594147 -121.328293 9,225 126 292 3136
2019-10-07 17:42:37 GMT 38.598927 -121.336487 9,000 126 291 2368
2019-10-07 17:42:29 GMT 38.602844 -121.343277 8,800 126 291 1664
2019-10-07 17:42:23 GMT 38.607422 -121.351097 8,650 126 290 1344
2019-10-07 17:42:19 GMT 38.610626 -121.356590 8,600 126 288 1664
2019-10-07 17:42:16 GMT 38.612057 -121.359070 8,550 126 290 1536
2019-10-07 17:42:11 GMT 38.616478 -121.366699 8,425 126 288 1664
2019-10-07 17:42:06 GMT 38.621475 -121.375221 8,225 126 286 1600
2019-10-07 17:42:02 GMT 38.623993 -121.379578 8,050 126 285 2112
2019-10-07 17:41:59 GMT 38.625744 -121.382507 8,050 126 285 2112
2019-10-07 17:41:55 GMT 38.628799 -121.387642 7,825 126 284 2624
2019-10-07 17:41:52 GMT 38.631748 -121.392639 7,700 126 283 2752
2019-10-07 17:41:49 GMT 38.637589 -121.402626 7,500 126 281 2752
2019-10-07 17:41:45 GMT 38.637589 -121.402626 7,400 126 281 2688
2019-10-07 17:41:42 GMT 38.640221 -121.407166 7,250 126 279 2688
2019-10-07 17:41:37 GMT 38.644131 -121.414001 7,050 125 275 3200
2019-10-07 17:41:34 GMT 38.646103 -121.417435 6,850 125 275 3264
2019-10-07 17:41:31 GMT 38.648254 -121.421135 6,700 126 274 3328
2019-10-07 17:41:20 GMT 38.656082 -121.434753 6,150 126 272 3008
2019-10-07 17:41:09 GMT 38.664963 -121.450218 5,550 126 267 3136
2019-10-07 17:40:59 GMT 38.671501 -121.461609 5,125 126 264 3328
2019-10-07 17:40:56 GMT 38.673340 -121.464905 4,900 126 263 3520
2019-10-07 17:40:49 GMT 38.681885 -121.479614 4,275 126 260 3136
2019-10-07 17:40:38 GMT 38.686890 -121.488129 3,950 126 256 2496
2019-10-07 17:40:34 GMT 38.689682 -121.493027 3,800 126 251 2112
2019-10-07 17:40:26 GMT 38.695129 -121.502457 3,550 126 241 1920
2019-10-07 17:40:23 GMT 38.697235 -121.506104 3,425 126 236 2112
2019-10-07 17:40:16 GMT 38.701481 -121.513367 3,175 126 230 2688
2019-10-07 17:40:12 GMT 38.704651 -121.518700 2,900 127 224 3072
2019-10-07 17:40:05 GMT 38.708370 -121.524780 2,625 128 221 2880
2019-10-07 17:39:59 GMT 38.711884 -121.530228 2,350 131 219 3136
2019-10-07 17:39:53 GMT 38.717056 -121.537628 1,975 132 220 3072
2019-10-07 17:39:48 GMT 38.720032 -121.541870 1,825 130 219 1792
2019-10-07 17:39:44 GMT 38.722595 -121.546402 1,725 120 213 896
2019-10-07 17:39:37 GMT 38.725113 -121.554047 1,675 105 199 640
2019-10-07 17:39:31 GMT 38.725689 -121.560547 1,600 91 188 768
2019-10-07 17:39:25 GMT 38.724930 -121.566170 1,525 74 173 896
2019-10-07 17:39:22 GMT 38.723694 -121.570168 1,450 64 164 960
2019-10-07 17:39:15 GMT 38.720810 -121.575363 1,300 45 152 1600
2019-10-07 17:39:12 GMT 38.719265 -121.577148 1,225 28 146 1984
2019-10-07 17:39:03 GMT 38.714005 -121.579651 925 7 144 2624
2019-10-07 17:38:57 GMT 38.710003 -121.580017 625 2 145 3200
2019-10-07 17:38:48 GMT 38.704136 -121.580139 150 1 155 2944
2019-10-07 17:38:40 GMT 38.697647 -121.580261 -75 0 149 128
2019-10-07 17:38:37 GMT 38.696129 -121.580261 -50 0 144 128
2019-10-07 17:38:25 GMT 38.689270 -121.580376 -50 0 104 0
2019-10-07 17:38:14 GMT 38.685333 -121.580437 -50 1 57 64
2019-10-07 17:38:04 GMT 38.683880 -121.580589 0 33 12
2019-10-07 17:37:52 GMT 38.683662 -121.581276 0 90 13
2019-10-07 17:37:37 GMT 38.683662 -121.581917 0 90 0
2019-10-07 17:37:28 GMT 38.683662 -121.581932 0 90 0
2019-10-07 17:37:03 GMT 38.683662 -121.581940 0 90 0
2019-10-07 17:36:53 GMT 38.683662 -121.581932 0 90 0
2019-10-07 17:36:22 GMT 38.683662 -121.581940 0 90 0
2019-10-07 17:35:38 GMT 38.683662 -121.581932 0 90 0
2019-10-07 17:35:27 GMT 38.683662 -121.582413 0 95 11
2019-10-07 17:35:16 GMT 38.683937 -121.582993 0 151 12
2019-10-07 17:35:12 GMT 38.684235 -121.583099 0 180 13
2019-10-07 17:35:00 GMT 38.685024 -121.583084 0 180 23
2019-10-07 17:34:53 GMT 38.685905 -121.583069 0 180 29
2019-10-07 17:34:50 GMT 38.686413 -121.583054 0 180 29
2019-10-07 17:34:42 GMT 38.687389 -121.583038 0 180 29
2019-10-07 17:34:37 GMT 38.687969 -121.583023 0 180 28
2019-10-07 17:34:32 GMT 38.688606 -121.583023 0 180 28
2019-10-07 17:34:27 GMT 38.689442 -121.583008 0 180 26
2019-10-07 17:34:22 GMT 38.689949 -121.582993 0 180 25
2019-10-07 17:34:14 GMT 38.690857 -121.582977 0 180 24
2019-10-07 17:34:10 GMT 38.691368 -121.582977 0 180 23
2019-10-07 17:34:00 GMT 38.692337 -121.582962 0 182 20
2019-10-07 17:33:49 GMT 38.693195 -121.582947 0 180 15
2019-10-07 17:33:38 GMT 38.693836 -121.583023 0 143 11
2019-10-07 17:33:27 GMT 38.693996 -121.583801 0 90 17
2019-10-07 17:33:16 GMT 38.694012 -121.584747 0 90 13
2019-10-07 17:33:05 GMT 38.694023 -121.585526 0 92 11
2019-10-07 17:32:53 GMT 38.694122 -121.586143 0 118 8
2019-10-07 17:32:43 GMT 38.694290 -121.586334 0 180 0
2019-10-07 17:32:31 GMT 38.694294 -121.586334 0 180 0
2019-10-07 17:31:57 GMT 38.694290 -121.586334 0 180 0
2019-10-07 17:31:47 GMT 38.694294 -121.586334 0 180 0
2019-10-07 17:31:17 GMT 38.694290 -121.586334 0 180 0
2019-10-07 17:31:00 GMT 38.694294 -121.586334 0 180 0
2019-10-07 17:30:42 GMT 38.694290 -121.586334 0 180 0
2019-10-07 17:30:32 GMT 38.694225 -121.586349 0 185 2
2019-10-07 17:30:29 GMT 38.694199 -121.586349 0 185 2
2019-10-07 17:30:20 GMT 38.694103 -121.586395 0 202 3
2019-10-07 17:30:09 GMT 38.693996 -121.586487 0 222 3
2019-10-07 17:29:56 GMT 38.693928 -121.586647 0 250 3
2019-10-07 17:29:53 GMT 38.693916 -121.586708 0 261 3
2019-10-07 17:29:47 GMT 38.693916 -121.586792 0 267 3
2019-10-07 17:29:28 GMT 38.693916 -121.586990 0 272 0
2019-10-07 17:29:23 GMT 38.693916 -121.587006 0 272 0
2019-10-07 17:28:48 GMT 38.693916 -121.587006 0 272 0
2019-10-07 17:28:28 GMT 38.693916 -121.586990 0 272 0
2019-10-07 17:28:18 GMT 38.693916 -121.586990 0 272 0
2019-10-07 17:28:08 GMT 38.693916 -121.586990 0 272 0
2019-10-07 17:27:43 GMT 38.693916 -121.586990 0 272 0
2019-10-07 17:27:33 GMT 38.693916 -121.586990 0 272 0
We lost coverage of the aircraft here for a total of 69 minutes
2019-10-07 16:18:14 GMT 38.693916 -121.586990 0 272 0 0
2019-10-07 16:18:08 GMT 38.693916 -121.586975 0 272 2 0
2019-10-07 16:18:03 GMT 38.693916 -121.586899 0 272 3 0
2019-10-07 16:18:00 GMT 38.693916 -121.586777 0 272 8 0
2019-10-07 16:17:52 GMT 38.693905 -121.586426 0 270 10 0
2019-10-07 16:17:47 GMT 38.693916 -121.586098 0 261 12 0
2019-10-07 16:17:42 GMT 38.693962 -121.585678 0 261 14 0
2019-10-07 16:17:37 GMT 38.694000 -121.585358 0 264 15 0
2019-10-07 16:17:30 GMT 38.694008 -121.584770 0 270 13 0
2019-10-07 16:17:25 GMT 38.694012 -121.584366 0 270 12 0
2019-10-07 16:17:19 GMT 38.694000 -121.583954 0 272 11 0
2019-10-07 16:17:13 GMT 38.694000 -121.583633 0 270 10 0
2019-10-07 16:17:08 GMT 38.694000 -121.583313 0 261 9 0
2019-10-07 16:17:01 GMT 38.694099 -121.583038 0 213 7 0
2019-10-07 16:16:58 GMT 38.694138 -121.582993 0 205 7 0
2019-10-07 16:16:50 GMT 38.694420 -121.582916 0 180 10 0
2019-10-07 16:16:47 GMT 38.694592 -121.582916 0 180 13 0
2019-10-07 16:16:43 GMT 38.694847 -121.582916 0 180 17 0
2019-10-07 16:16:40 GMT 38.695049 -121.582916 0 180 18 0
2019-10-07 16:16:37 GMT 38.695393 -121.582901 0 180 19 0
2019-10-07 16:16:33 GMT 38.695644 -121.582901 0 180 20 0
2019-10-07 16:16:28 GMT 38.696129 -121.582901 0 180 23 0
2019-10-07 16:16:22 GMT 38.696789 -121.582886 0 180 23 0
2019-10-07 16:16:18 GMT 38.697212 -121.582886 0 180 22 0
2019-10-07 16:16:11 GMT 38.697853 -121.582855 0 180 21 0
2019-10-07 16:16:08 GMT 38.698231 -121.582855 0 180 21 0
2019-10-07 16:16:01 GMT 38.699017 -121.582840 0 180 22 0
2019-10-07 16:15:57 GMT 38.699387 -121.582840 0 180 21 0
2019-10-07 16:15:50 GMT 38.699982 -121.582825 0 180 20 0
2019-10-07 16:15:42 GMT 38.700726 -121.582825 0 180 17 0
2019-10-07 16:15:38 GMT 38.700924 -121.582809 0 180 16 0
2019-10-07 16:15:33 GMT 38.701241 -121.582787 0 191 13 0
2019-10-07 16:15:27 GMT 38.701530 -121.582626 0 230 10 0
2019-10-07 16:15:22 GMT 38.701630 -121.582352 0 270 10 0
2019-10-07 16:15:16 GMT 38.701572 -121.582039 0 306 10 0
2019-10-07 16:15:12 GMT 38.701389 -121.581810 0 329 13 0
2019-10-07 16:15:08 GMT 38.701168 -121.581650 0 331 14 0
2019-10-07 16:15:01 GMT 38.700760 -121.581360 0 331 16 0
2019-10-07 16:14:54 GMT 38.700283 -121.581009 0 331 22 0
2019-10-07 16:14:48 GMT 38.699852 -121.580734 0 334 24 0
2019-10-07 16:14:42 GMT 38.699200 -121.580429 0 345 29 0
2019-10-07 16:14:37 GMT 38.698132 -121.580276 0 0 44 0
2019-10-07 16:14:32 GMT 38.697281 -121.580261 -75 0 57 0
2019-10-07 16:14:26 GMT 38.695244 -121.580261 -75 1 103 0
2019-10-07 16:14:22 GMT 38.693195 -121.580322 -75 0 106 -64
2019-10-07 16:14:11 GMT 38.687050 -121.580383 -75 0 128 -512
2019-10-07 16:14:00 GMT 38.680801 -121.580437 25 0 127 -640
2019-10-07 16:13:49 GMT 38.674389 -121.580566 150 0 123 -640
2019-10-07 16:13:37 GMT 38.667267 -121.580688 275 0 126 -704
2019-10-07 16:13:25 GMT 38.661209 -121.580856 375 0 131 -640
2019-10-07 16:13:16 GMT 38.654789 -121.580872 500 0 130 -832
2019-10-07 16:13:05 GMT 38.648598 -121.580811 625 0 127 -640
2019-10-07 16:12:56 GMT 38.643150 -121.580872 750 1 127 -768
2019-10-07 16:12:43 GMT 38.635941 -121.581154 850 2 129 -704
2019-10-07 16:12:34 GMT 38.629944 -121.581390 950 1 134 -704
2019-10-07 16:12:31 GMT 38.629002 -121.581421 975 1 134 -768
2019-10-07 16:12:22 GMT 38.622162 -121.581512 1,150 0 144 -896
2019-10-07 16:12:12 GMT 38.615406 -121.581604 1,300 0 155 -1088
2019-10-07 16:12:00 GMT 38.606140 -121.581696 1,575 0 164 -1344
2019-10-07 16:11:50 GMT 38.598835 -121.581787 1,725 0 172 -704
2019-10-07 16:11:40 GMT 38.590210 -121.581810 1,850 0 175 -640
2019-10-07 16:11:37 GMT 38.588127 -121.581848 1,850 0 175 -640
2019-10-07 16:11:30 GMT 38.582260 -121.581909 1,975 0 175 -960
2019-10-07 16:11:26 GMT 38.579376 -121.582031 2,025 1 175 -960
2019-10-07 16:11:17 GMT 38.571880 -121.582214 2,150 1 175 -896
2019-10-07 16:11:14 GMT 38.569927 -121.582275 2,200 0 175 -960
2019-10-07 16:11:06 GMT 38.563614 -121.582413 2,325 0 176 -960
2019-10-07 16:11:03 GMT 38.560318 -121.582466 2,375 0 177 -960
2019-10-07 16:10:57 GMT 38.553864 -121.582581 2,475 0 179 -960
2019-10-07 16:10:54 GMT 38.553864 -121.582581 2,500 0 180 -960
2019-10-07 16:10:50 GMT 38.551071 -121.582649 2,550 0 181 -960
2019-10-07 16:10:46 GMT 38.547161 -121.582703 2,625 0 182 -960
2019-10-07 16:10:40 GMT 38.541229 -121.582825 2,750 0 185 -960
2019-10-07 16:10:36 GMT 38.537666 -121.582886 2,800 0 186 -960
2019-10-07 16:10:31 GMT 38.534126 -121.582947 2,875 0 188 -960
2019-10-07 16:10:26 GMT 38.529938 -121.583008 2,925 1 191 -768
2019-10-07 16:10:22 GMT 38.525482 -121.583122 3,000 1 193 -1088
2019-10-07 16:10:15 GMT 38.518951 -121.583252 3,150 359 195 -1088
2019-10-07 16:10:10 GMT 38.515411 -121.583008 3,200 347 196 -896
2019-10-07 16:10:04 GMT 38.509735 -121.581451 3,300 339 197 -768
2019-10-07 16:09:58 GMT 38.505917 -121.579224 3,375 332 198 -832
2019-10-07 16:09:52 GMT 38.501167 -121.574768 3,475 319 200 -960
2019-10-07 16:09:48 GMT 38.498188 -121.571106 3,550 315 203 -960
2019-10-07 16:09:43 GMT 38.494080 -121.565872 3,650 315 206 -960
2019-10-07 16:09:38 GMT 38.490692 -121.561523 3,725 315 209 -960
2019-10-07 16:09:32 GMT 38.487015 -121.556885 3,800 316 212 -1024
2019-10-07 16:09:26 GMT 38.483105 -121.551941 3,900 315 216 -1152
2019-10-07 16:09:21 GMT 38.479103 -121.546875 4,000 315 219 -1024
2019-10-07 16:09:15 GMT 38.475220 -121.541924 4,075 315 223 -1024
2019-10-07 16:09:10 GMT 38.471100 -121.536674 4,175 315 226 -1024
2019-10-07 16:09:07 GMT 38.468861 -121.533813 4,225 315 226 -1024
2019-10-07 16:09:02 GMT 38.465195 -121.529152 4,325 315 229 -1088
2019-10-07 16:08:59 GMT 38.462578 -121.525757 4,375 315 231 -1152
2019-10-07 16:08:52 GMT 38.457367 -121.519058 4,525 315 234 -1088
2019-10-07 16:08:48 GMT 38.454384 -121.515198 4,575 315 236 -896
2019-10-07 16:08:39 GMT 38.448395 -121.507538 4,700 315 240 -1088
2019-10-07 16:08:36 GMT 38.444824 -121.502998 4,800 315 242 -1216
2019-10-07 16:08:31 GMT 38.440884 -121.497986 4,900 315 243 -1152
2019-10-07 16:08:27 GMT 38.438507 -121.494934 4,950 316 243 -1152
2019-10-07 16:08:23 GMT 38.435715 -121.491455 5,025 315 244 -1152
2019-10-07 16:08:20 GMT 38.432373 -121.487114 5,100 315 245 -1152
2019-10-07 16:08:16 GMT 38.429291 -121.483215 5,175 315 246 -1152
2019-10-07 16:08:13 GMT 38.424126 -121.476624 5,300 315 248 -1152
2019-10-07 16:08:10 GMT 38.421341 -121.473083 5,300 315 248 -1152
2019-10-07 16:08:07 GMT 38.421341 -121.473083 5,350 315 248 -1152
2019-10-07 16:08:04 GMT 38.419189 -121.470398 5,400 315 249 -1216
2019-10-07 16:08:01 GMT 38.417404 -121.468071 5,450 315 249 -1152
2019-10-07 16:07:56 GMT 38.412827 -121.462219 5,550 315 251 -1152
2019-10-07 16:07:52 GMT 38.409897 -121.458534 5,600 315 251 -1152
2019-10-07 16:07:49 GMT 38.406921 -121.454735 5,675 315 253 -1152
2019-10-07 16:07:45 GMT 38.404385 -121.451530 5,750 315 254 -1216
2019-10-07 16:07:41 GMT 38.401566 -121.447899 5,800 315 254 -1216
2019-10-07 16:07:38 GMT 38.398224 -121.443687 5,900 315 255 -1152
2019-10-07 16:07:35 GMT 38.395725 -121.440544 6,000 315 257 -1216
2019-10-07 16:07:32 GMT 38.392609 -121.436600 6,025 315 257 -1216
2019-10-07 16:07:27 GMT 38.388382 -121.431244 6,125 315 258 -1216
2019-10-07 16:07:24 GMT 38.385906 -121.428062 6,175 316 259 -1216
2019-10-07 16:07:20 GMT 38.379711 -121.420242 6,325 316 260 -1216
2019-10-07 16:07:15 GMT 38.376266 -121.415886 6,400 316 262 -1216
2019-10-07 16:07:09 GMT 38.373367 -121.412193 6,475 315 263 -1216
2019-10-07 16:07:04 GMT 38.368679 -121.406273 6,575 315 264 -1216
2019-10-07 16:07:00 GMT 38.365356 -121.402084 6,700 315 266 -1216
2019-10-07 16:06:56 GMT 38.361698 -121.397430 6,750 315 267 -1216
2019-10-07 16:06:51 GMT 38.355087 -121.389015 6,825 315 268 -1280
2019-10-07 16:06:48 GMT 38.355087 -121.389015 6,900 315 270 -1280
2019-10-07 16:06:44 GMT 38.350849 -121.383636 7,000 315 270 -1280
2019-10-07 16:06:39 GMT 38.347778 -121.379700 7,050 315 271 -1280
2019-10-07 16:06:35 GMT 38.342834 -121.373444 7,175 315 274 -1280
2019-10-07 16:06:31 GMT 38.340683 -121.370697 7,225 315 274 -1280
2019-10-07 16:06:28 GMT 38.336884 -121.365906 7,325 315 275 -1280
2019-10-07 16:06:25 GMT 38.331066 -121.358505 7,400 315 277 -1280
2019-10-07 16:06:21 GMT 38.331066 -121.358505 7,450 315 278 -1280
2019-10-07 16:06:17 GMT 38.327065 -121.353432 7,550 315 280 -1344
2019-10-07 16:06:13 GMT 38.324295 -121.349899 7,800 315 282 -1344
2019-10-07 16:06:08 GMT 38.318825 -121.342979 7,700 315 283 -1280
2019-10-07 16:06:05 GMT 38.316959 -121.340591 7,750 315 284 -1344
2019-10-07 16:06:02 GMT 38.313610 -121.336349 7,875 315 285 -1408
2019-10-07 16:05:57 GMT 38.308136 -121.329384 7,950 315 287 -1280
2019-10-07 16:05:54 GMT 38.306259 -121.327049 8,050 315 287 -1344
2019-10-07 16:05:51 GMT 38.303787 -121.323875 8,100 315 287 -1344
2019-10-07 16:05:48 GMT 38.299850 -121.318863 8,200 316 287 -1408
2019-10-07 16:05:45 GMT 38.297035 -121.315331 8,250 316 287 -1344
2019-10-07 16:05:42 GMT 38.294056 -121.311569 8,375 315 288 -1280
2019-10-07 16:05:36 GMT 38.289276 -121.305481 8,425 315 288 -1344
2019-10-07 16:05:33 GMT 38.284142 -121.299034 8,550 315 288 -1344
2019-10-07 16:05:26 GMT 38.278881 -121.292290 8,675 315 287 -1344
2019-10-07 16:05:23 GMT 38.276413 -121.289177 8,725 315 287 -1344
2019-10-07 16:05:20 GMT 38.273804 -121.285851 8,800 315 288 -1280
2019-10-07 16:05:15 GMT 38.268734 -121.279388 8,925 315 287 -1344
2019-10-07 16:05:12 GMT 38.264008 -121.273346 9,025 315 287 -1344
2019-10-07 16:05:03 GMT 38.257839 -121.265358 9,175 315 287 -1344
2019-10-07 16:05:00 GMT 38.254536 -121.261116 9,200 315 287 -1344
2019-10-07 16:04:51 GMT 38.246246 -121.250427 9,450 315 287 -1344
2019-10-07 16:04:40 GMT 38.236053 -121.237534 9,675 316 289 -1408
2019-10-07 16:04:36 GMT 38.233353 -121.234192 9,750 316 289 -1344
2019-10-07 16:04:29 GMT 38.225300 -121.224159 9,925 315 292 -1280
2019-10-07 16:04:25 GMT 38.223019 -121.221237 9,975 315 293 -1344
2019-10-07 16:04:18 GMT 38.214638 -121.210304 10,125 314 296 -1408
2019-10-07 16:04:14 GMT 38.212357 -121.207260 10,175 313 298 -1344
2019-10-07 16:04:06 GMT 38.204407 -121.196091 10,400 312 302 -1472
2019-10-07 16:04:03 GMT 38.194248 -121.181053 10,675 311 307 -1408
2019-10-07 16:03:56 GMT 38.191597 -121.177170 10,800 311 309 -1408
2019-10-07 16:03:52 GMT 38.191597 -121.177170 10,800 311 312 -1472
2019-10-07 16:03:44 GMT 38.183167 -121.164703 10,975 311 313 -1408
2019-10-07 16:03:40 GMT 38.179165 -121.158836 11,075 311 316 -1408
2019-10-07 16:03:36 GMT 38.175568 -121.153488 11,150 311 317 -1472
2019-10-07 16:03:33 GMT 38.173069 -121.149826 11,225 311 319 -1536
2019-10-07 16:03:29 GMT 38.168831 -121.143555 11,350 311 321 -1472
2019-10-07 16:03:23 GMT 38.162796 -121.134666 11,500 311 323 -1536
2019-10-07 16:03:17 GMT 38.158493 -121.128304 11,600 311 323 -1472
2019-10-07 16:03:12 GMT 38.152588 -121.119705 11,750 311 325 -1536
2019-10-07 16:03:08 GMT 38.147873 -121.112755 11,875 311 328 -1472
2019-10-07 16:03:03 GMT 38.144066 -121.107193 11,950 311 329 -1536
2019-10-07 16:03:00 GMT 38.141693 -121.103668 12,025 311 330 -1600
2019-10-07 16:02:56 GMT 38.137115 -121.096977 12,150 311 333 -1536
2019-10-07 16:02:53 GMT 38.133175 -121.091248 12,250 311 336 -1536
2019-10-07 16:02:50 GMT 38.130424 -121.087189 12,325 311 338 -1536
2019-10-07 16:02:45 GMT 38.125626 -121.080208 12,450 311 341 -1600
2019-10-07 16:02:39 GMT 38.119160 -121.070770 12,600 312 347 -1664
2019-10-07 16:02:34 GMT 38.113495 -121.062553 12,750 312 348 -1664
2019-10-07 16:02:31 GMT 38.111389 -121.059517 12,800 312 350 -1664
2019-10-07 16:02:28 GMT 38.107288 -121.053513 12,900 311 353 -1664
2019-10-07 16:02:20 GMT 38.099655 -121.042229 13,450 311 357 -1728
2019-10-07 16:02:17 GMT 38.095963 -121.036728 13,400 311 357 -1728
2019-10-07 16:02:11 GMT 38.088390 -121.025749 13,450 313 357 -1792
2019-10-07 16:02:07 GMT 38.082733 -121.017967 13,600 314 357 -1472
2019-10-07 16:02:01 GMT 38.078472 -121.012314 13,625 315 357 -1408
2019-10-07 16:01:58 GMT 38.075680 -121.008736 13,675 315 358 -1216
2019-10-07 16:01:55 GMT 38.062645 -120.992912 14,350 322 361 -1216
2019-10-07 16:01:48 GMT 38.062645 -120.992912 13,900 319 359 -1216
2019-10-07 16:01:44 GMT 38.057373 -120.987053 14,000 320 359 -1216
2019-10-07 16:01:39 GMT 38.050404 -120.979836 14,150 322 361 -1216
2019-10-07 16:01:34 GMT 38.043747 -120.972969 14,200 322 361 -1216
2019-10-07 16:01:26 GMT 38.033226 -120.962280 14,375 322 362 -1216
2019-10-07 16:01:23 GMT 38.023544 -120.952400 14,450 322 362 -1216
2019-10-07 16:01:18 GMT 38.023544 -120.952400 14,525 322 363 -1280
2019-10-07 16:01:15 GMT 38.018608 -120.947350 14,600 322 363 -1216
2019-10-07 16:01:12 GMT 38.014709 -120.943344 14,800 322 364 -1280
2019-10-07 16:01:07 GMT 38.009491 -120.938026 14,725 322 364 -1216
2019-10-07 16:01:04 GMT 38.006744 -120.935280 14,775 322 364 -1216
2019-10-07 16:01:01 GMT 38.000977 -120.929375 14,875 322 364 -1280
2019-10-07 16:00:54 GMT 37.992050 -120.920258 15,000 322 364 -1216
2019-10-07 16:00:49 GMT 37.985229 -120.913307 15,100 322 365 -1216
2019-10-07 16:00:44 GMT 37.977859 -120.905830 16,325 322 372 -1216
2019-10-07 16:00:39 GMT 37.971405 -120.899284 15,325 322 365 -1216
2019-10-07 16:00:33 GMT 37.964840 -120.892662 15,425 322 365 -1216
2019-10-07 16:00:28 GMT 37.957214 -120.884850 15,550 322 365 -1280
2019-10-07 16:00:25 GMT 37.952084 -120.879700 15,675 322 366 -1216
2019-10-07 16:00:21 GMT 37.949524 -120.877075 15,675 322 367 -1216
2019-10-07 16:00:17 GMT 37.942841 -120.870293 15,775 322 367 -1280
2019-10-07 16:00:12 GMT 37.936478 -120.863869 15,900 322 367 -1216
2019-10-07 16:00:07 GMT 37.929565 -120.856857 15,975 322 369 -1280
2019-10-07 16:00:01 GMT 37.921646 -120.848846 16,250 322 370 -1280
2019-10-07 15:59:56 GMT 37.915146 -120.842247 16,225 322 372 -1280
2019-10-07 15:59:53 GMT 37.905487 -120.832428 16,275 322 372 -1280
2019-10-07 15:59:48 GMT 37.905487 -120.832428 16,300 322 372 -1216
2019-10-07 15:59:45 GMT 37.899536 -120.826408 16,450 322 373 -1280
2019-10-07 15:59:39 GMT 37.892776 -120.819519 16,600 322 374 -1280
2019-10-07 15:59:35 GMT 37.882488 -120.809128 16,700 322 376 -1216
2019-10-07 15:59:29 GMT 37.878342 -120.804901 16,775 322 377 -1344
2019-10-07 15:59:26 GMT 37.874390 -120.800888 16,825 322 377 -1280
2019-10-07 15:59:23 GMT 37.870991 -120.797485 16,875 322 377 -1216
2019-10-07 15:59:16 GMT 37.860901 -120.787254 17,025 322 377 -1280
2019-10-07 15:59:11 GMT 37.853672 -120.779930 17,150 322 377 -1344
2019-10-07 15:59:07 GMT 37.848907 -120.775101 17,225 322 377 -1344
2019-10-07 15:59:03 GMT 37.843758 -120.769897 17,275 322 377 -1344
2019-10-07 15:59:00 GMT 37.839111 -120.765228 17,375 322 377 -1472
2019-10-07 15:58:57 GMT 37.835052 -120.761063 17,575 322 378 -1536
2019-10-07 15:58:53 GMT 37.829048 -120.754974 17,575 322 378 -1536
2019-10-07 15:58:49 GMT 37.820572 -120.746353 17,725 322 378 -1536
2019-10-07 15:58:46 GMT 37.820572 -120.746353 17,725 322 379 -1536
2019-10-07 15:58:42 GMT 37.814384 -120.740105 17,825 322 379 -1344
2019-10-07 15:58:37 GMT 37.805145 -120.730804 17,950 322 381 -1344
2019-10-07 15:58:34 GMT 37.795807 -120.721336 18,100 322 381 -1344
2019-10-07 15:58:28 GMT 37.795807 -120.721336 18,200 322 382 -1344
2019-10-07 15:58:24 GMT 37.789764 -120.715202 18,225 322 382 -1344
2019-10-07 15:58:20 GMT 37.784821 -120.710236 18,300 322 382 -1344
2019-10-07 15:58:17 GMT 37.773697 -120.698959 18,400 322 383 -1280
2019-10-07 15:58:13 GMT 37.773697 -120.698959 18,450 322 384 -1280
2019-10-07 15:58:07 GMT 37.767830 -120.693115 18,550 322 384 -1280
2019-10-07 15:58:04 GMT 37.762024 -120.687210 18,650 322 384 -1280
2019-10-07 15:58:01 GMT 37.757870 -120.683022 18,750 322 385 -1344
2019-10-07 15:57:58 GMT 37.754333 -120.679436 18,750 322 385 -1344
2019-10-07 15:57:53 GMT 37.748657 -120.673714 18,850 322 386 -1408
2019-10-07 15:57:50 GMT 37.744461 -120.669472 18,925 322 386 -1216
2019-10-07 15:57:43 GMT 37.731903 -120.656822 19,100 322 387 -1280
2019-10-07 15:57:40 GMT 37.729286 -120.654243 19,150 322 389 -1280
2019-10-07 15:57:35 GMT 37.723095 -120.648033 19,225 322 389 -1216
2019-10-07 15:57:32 GMT 37.717163 -120.642036 19,300 322 389 -1216
2019-10-07 15:57:28 GMT 37.711533 -120.636368 19,375 322 389 -1152
2019-10-07 15:57:25 GMT 37.707966 -120.632812 19,425 322 390 -1216
2019-10-07 15:57:19 GMT 37.697983 -120.622696 19,575 322 393 -1152
2019-10-07 15:57:13 GMT 37.691803 -120.616440 19,675 322 394 -1152
2019-10-07 15:57:09 GMT 37.684250 -120.608902 19,775 322 396 -1280
2019-10-07 15:57:03 GMT 37.676636 -120.601280 19,875 322 397 -1216
2019-10-07 15:56:58 GMT 37.668777 -120.593414 19,975 322 400 -1280
2019-10-07 15:56:54 GMT 37.664391 -120.588982 20,025 322 404 -1216
2019-10-07 15:56:48 GMT 37.650379 -120.574890 20,200 322 403 -1216
2019-10-07 15:56:42 GMT 37.645432 -120.569923 20,300 322 404 -1280
2019-10-07 15:56:37 GMT 37.637787 -120.562271 20,400 322 404 -1280
2019-10-07 15:56:33 GMT 37.632828 -120.557335 20,925 322 404 -1216
2019-10-07 15:56:30 GMT 37.628357 -120.552864 20,550 322 404 -1216
2019-10-07 15:56:25 GMT 37.620399 -120.544914 20,650 322 405 -1152
2019-10-07 15:56:20 GMT 37.612427 -120.536964 20,750 322 407 -1152
2019-10-07 15:56:15 GMT 37.599731 -120.524261 20,900 322 409 -1984
2019-10-07 15:56:11 GMT 37.599731 -120.524261 21,000 322 409 -2112
2019-10-07 15:56:08 GMT 37.595947 -120.520432 21,100 322 409 -2112
2019-10-07 15:56:03 GMT 37.588669 -120.513245 21,250 322 411 -2048
2019-10-07 15:55:58 GMT 37.581203 -120.505753 21,600 322 412 -2112
2019-10-07 15:55:52 GMT 37.570770 -120.495415 21,675 322 414 -2112
2019-10-07 15:55:46 GMT 37.562023 -120.486763 21,875 322 415 -2112
2019-10-07 15:55:41 GMT 37.555618 -120.480400 21,975 322 416 -2112
2019-10-07 15:55:35 GMT 37.547405 -120.472313 22,475 323 418 -2112
2019-10-07 15:55:32 GMT 37.541306 -120.466339 22,350 323 418 -2112
2019-10-07 15:55:24 GMT 37.530319 -120.455536 22,600 323 419 -2176
2019-10-07 15:55:21 GMT 37.525085 -120.450417 22,750 322 420 -2112
2019-10-07 15:55:18 GMT 37.519848 -120.445267 22,750 322 420 -2112
2019-10-07 15:55:13 GMT 37.512817 -120.438263 23,000 322 420 -2112
2019-10-07 15:55:08 GMT 37.504440 -120.429794 23,200 322 421 -2176
2019-10-07 15:54:58 GMT 37.490250 -120.415710 23,550 323 421 -2176
2019-10-07 15:54:51 GMT 37.478786 -120.404663 23,775 323 422 -2048
2019-10-07 15:54:46 GMT 37.471992 -120.398331 23,925 324 423 -2432
2019-10-07 15:54:41 GMT 37.461887 -120.389023 24,175 325 424 -2432
2019-10-07 15:54:36 GMT 37.455688 -120.383453 24,350 325 424 -2304
2019-10-07 15:54:29 GMT 37.445297 -120.374512 24,575 327 424 -2304
2019-10-07 15:54:26 GMT 37.438019 -120.368492 25,175 328 426 -2368
2019-10-07 15:54:19 GMT 37.427994 -120.360542 25,000 328 427 -2304
2019-10-07 15:54:15 GMT 37.420074 -120.354233 25,175 328 428 -2304
2019-10-07 15:54:08 GMT 37.409225 -120.345581 25,425 328 431 -2304
2019-10-07 15:54:04 GMT 37.401512 -120.339462 25,600 328 431 -2304
2019-10-07 15:53:57 GMT 37.391315 -120.331398 25,850 328 435 -2432
2019-10-07 15:53:53 GMT 37.382767 -120.324661 26,050 329 437 -2368
2019-10-07 15:53:46 GMT 37.373154 -120.317123 26,275 329 437 -2304
2019-10-07 15:53:42 GMT 37.363850 -120.309967 26,800 328 440 -2368
2019-10-07 15:53:36 GMT 37.354477 -120.302689 26,725 329 440 -2432
2019-10-07 15:53:31 GMT 37.345230 -120.295456 26,900 328 441 -2432
2019-10-07 15:53:25 GMT 37.335800 -120.287964 27,150 328 440 -2432
2019-10-07 15:53:21 GMT 37.329403 -120.282799 27,400 328 441 -2368
2019-10-07 15:53:18 GMT 37.324173 -120.278557 27,400 328 441 -2368
2019-10-07 15:53:14 GMT 37.317623 -120.273308 27,550 328 441 -2176
2019-10-07 15:53:09 GMT 37.307198 -120.265121 27,750 329 441 -1792
2019-10-07 15:53:04 GMT 37.299561 -120.259216 27,875 329 440 -1536
2019-10-07 15:52:57 GMT 37.288055 -120.250504 28,000 330 437 -576
2019-10-07 15:52:54 GMT 37.280148 -120.244583 28,000 330 437 0
2019-10-07 15:52:46 GMT 37.268883 -120.236282 28,000 330 441 -64
2019-10-07 15:52:43 GMT 37.262505 -120.231689 28,000 331 443 -64
2019-10-07 15:52:39 GMT 37.254227 -120.225845 28,000 332 450 -128
2019-10-07 15:52:36 GMT 37.248680 -120.222137 28,000 333 468 -64
2019-10-07 15:52:31 GMT 37.240814 -120.216965 28,000 333 457 128
2019-10-07 15:52:28 GMT 37.234726 -120.213043 28,000 333 466 -64
2019-10-07 15:52:25 GMT 37.227859 -120.208664 28,000 333 468 -64
2019-10-07 15:52:22 GMT 37.221306 -120.204460 28,000 333 469 0
2019-10-07 15:52:17 GMT 37.214325 -120.200043 28,000 333 471 0
2019-10-07 15:52:13 GMT 37.205383 -120.194290 28,000 333 471 -64
2019-10-07 15:52:10 GMT 37.201492 -120.191833 28,000 333 471 0
2019-10-07 15:52:02 GMT 37.184372 -120.180847 28,000 333 472 -64
2019-10-07 15:51:50 GMT 37.159950 -120.165291 28,000 334 473 -64
2019-10-07 15:51:41 GMT 37.135941 -120.149994 28,000 333 474 0
2019-10-07 15:51:33 GMT 37.128891 -120.145493 28,000 333 476 0
2019-10-07 15:51:30 GMT 37.116100 -120.137352 28,000 333 476 0
2019-10-07 15:51:27 GMT 37.116100 -120.137352 28,000 333 476 0
2019-10-07 15:51:20 GMT 37.093941 -120.123199 28,000 333 476 -64
2019-10-07 15:51:12 GMT 37.087280 -120.118958 28,000 334 475 -64
2019-10-07 15:51:09 GMT 37.079407 -120.113937 28,000 334 475 -64
2019-10-07 15:51:06 GMT 37.074738 -120.110954 28,000 334 475 0
2019-10-07 15:51:02 GMT 37.064892 -120.104691 28,000 334 475 64
2019-10-07 15:50:59 GMT 37.059399 -120.101227 28,000 333 474 64
2019-10-07 15:50:55 GMT 37.052765 -120.096985 28,000 333 474 -64
2019-10-07 15:50:48 GMT 37.032818 -120.084267 28,000 333 474 64
2019-10-07 15:50:42 GMT 37.026901 -120.080505 28,000 333 474 0
2019-10-07 15:50:39 GMT 37.023010 -120.077995 28,000 333 474 -64
2019-10-07 15:50:36 GMT 37.007866 -120.068382 28,000 333 472 64
2019-10-07 15:50:33 GMT 37.007866 -120.068382 28,000 334 470 0
2019-10-07 15:50:26 GMT 36.983963 -120.053162 28,000 333 471 0
2019-10-07 15:50:20 GMT 36.983963 -120.053162 28,000 333 471 0
2019-10-07 15:50:15 GMT 36.974625 -120.047256 28,000 334 471 0
2019-10-07 15:50:11 GMT 36.967224 -120.042534 28,000 334 471 64
2019-10-07 15:50:08 GMT 36.952835 -120.033409 28,000 334 470 0
2019-10-07 15:50:04 GMT 36.952835 -120.033409 28,000 334 470 0
2019-10-07 15:50:01 GMT 36.947906 -120.030289 28,000 334 470 0
2019-10-07 15:49:58 GMT 36.942078 -120.026573 28,000 334 470 0
2019-10-07 15:49:53 GMT 36.931091 -120.019615 28,000 333 469 0
2019-10-07 15:49:48 GMT 36.922955 -120.014465 28,000 333 469 64
2019-10-07 15:49:45 GMT 36.917553 -120.011063 28,000 333 468 -64
2019-10-07 15:49:39 GMT 36.905777 -120.003548 28,000 333 468 -64
2019-10-07 15:49:35 GMT 36.895706 -119.997177 28,000 333 468 0
2019-10-07 15:49:31 GMT 36.888969 -119.992912 28,000 334 467 64
2019-10-07 15:49:27 GMT 36.882385 -119.988762 28,000 334 467 64
2019-10-07 15:49:24 GMT 36.874695 -119.983849 28,000 334 467 0
2019-10-07 15:49:17 GMT 36.862717 -119.976257 28,000 334 467 0
2019-10-07 15:49:12 GMT 36.854244 -119.970940 28,000 334 467 0
2019-10-07 15:49:06 GMT 36.840729 -119.962349 28,000 333 466 0
2019-10-07 15:49:01 GMT 36.823517 -119.951477 28,000 334 467 0
2019-10-07 15:48:56 GMT 36.823517 -119.951477 28,000 333 466 0
2019-10-07 15:48:52 GMT 36.814114 -119.945518 28,000 333 466 0
2019-10-07 15:48:49 GMT 36.808109 -119.941719 28,000 333 466 64
2019-10-07 15:48:46 GMT 36.802917 -119.938484 28,000 333 466 64
2019-10-07 15:48:42 GMT 36.788452 -119.929337 28,000 334 466 0
2019-10-07 15:48:39 GMT 36.788452 -119.929337 28,000 334 466 0
2019-10-07 15:48:35 GMT 36.781311 -119.924812 28,000 334 466 0
2019-10-07 15:48:32 GMT 36.777107 -119.922142 28,000 334 466 0
2019-10-07 15:48:29 GMT 36.771469 -119.918633 28,000 334 466 0
2019-10-07 15:48:25 GMT 36.760712 -119.911819 28,000 334 466 64
2019-10-07 15:48:20 GMT 36.752014 -119.906387 28,000 334 466 0
2019-10-07 15:48:17 GMT 36.746243 -119.902679 28,000 334 466 0
2019-10-07 15:48:13 GMT 36.740433 -119.899063 28,000 334 466 -64
2019-10-07 15:48:09 GMT 36.729813 -119.892365 28,000 334 466 0
2019-10-07 15:48:06 GMT 36.724274 -119.888824 28,000 334 466 64
2019-10-07 15:48:03 GMT 36.720428 -119.886414 28,000 334 466 64
2019-10-07 15:47:57 GMT 36.710026 -119.879890 28,000 334 467 0
2019-10-07 15:47:53 GMT 36.692242 -119.868668 28,000 334 467 0
2019-10-07 15:47:49 GMT 36.688934 -119.866615 28,000 334 467 0
2019-10-07 15:47:41 GMT 36.679111 -119.860428 28,000 334 467 64
2019-10-07 15:47:36 GMT 36.668312 -119.853592 28,000 334 467 64
2019-10-07 15:47:30 GMT 36.657990 -119.847107 28,000 334 467 -128
2019-10-07 15:47:25 GMT 36.646713 -119.840034 28,000 334 467 -64
2019-10-07 15:47:21 GMT 36.637447 -119.834190 28,000 334 467 -64
2019-10-07 15:47:17 GMT 36.632050 -119.830803 28,000 334 467 0
2019-10-07 15:47:13 GMT 36.625114 -119.826424 28,000 334 467 -64
2019-10-07 15:47:09 GMT 36.616688 -119.821159 28,000 334 467 0
2019-10-07 15:47:05 GMT 36.607376 -119.815254 28,000 334 467 0
2019-10-07 15:47:00 GMT 36.599258 -119.810204 28,000 334 467 64
2019-10-07 15:46:57 GMT 36.591522 -119.805336 28,000 334 467 64
2019-10-07 15:46:53 GMT 36.583054 -119.800011 28,000 334 467 -64
2019-10-07 15:46:49 GMT 36.571426 -119.792747 28,000 334 467 64
2019-10-07 15:46:42 GMT 36.562958 -119.787430 28,000 334 467 0
2019-10-07 15:46:36 GMT 36.551048 -119.779961 28,000 334 468 0
2019-10-07 15:46:32 GMT 36.543594 -119.775291 28,000 334 468 -64
2019-10-07 15:46:28 GMT 36.534706 -119.769737 28,000 334 468 0
2019-10-07 15:46:24 GMT 36.529861 -119.766655 28,000 334 468 0
2019-10-07 15:46:20 GMT 36.520386 -119.760704 28,000 334 469 64
2019-10-07 15:46:16 GMT 36.514549 -119.757057 28,000 334 469 64
2019-10-07 15:46:13 GMT 36.505646 -119.751495 28,000 334 469 -64
2019-10-07 15:46:10 GMT 36.499935 -119.747940 28,000 334 469 0
2019-10-07 15:46:07 GMT 36.494534 -119.744545 28,000 334 469 0
2019-10-07 15:46:03 GMT 36.489349 -119.741249 28,000 334 469 0
2019-10-07 15:45:58 GMT 36.478455 -119.734444 28,000 334 469 0
2019-10-07 15:45:55 GMT 36.470764 -119.729630 28,000 334 469 0
2019-10-07 15:45:51 GMT 36.464973 -119.726021 28,000 334 469 -64
2019-10-07 15:45:48 GMT 36.458736 -119.722107 28,000 334 469 -64
2019-10-07 15:45:43 GMT 36.448196 -119.715500 28,000 334 469 64
2019-10-07 15:45:40 GMT 36.442348 -119.711884 28,000 334 470 -64
2019-10-07 15:45:36 GMT 36.435459 -119.707619 28,000 334 470 0
2019-10-07 15:45:33 GMT 36.430710 -119.704636 28,000 334 470 64
2019-10-07 15:45:30 GMT 36.424118 -119.700508 28,000 334 470 0
2019-10-07 15:45:26 GMT 36.417114 -119.696098 28,000 334 470 0
2019-10-07 15:45:20 GMT 36.404022 -119.687981 28,000 334 470 0
2019-10-07 15:45:17 GMT 36.397751 -119.684029 28,000 334 470 0
2019-10-07 15:45:12 GMT 36.389099 -119.678650 28,000 334 470 64
2019-10-07 15:45:09 GMT 36.384430 -119.675735 28,000 334 470 64
2019-10-07 15:45:06 GMT 36.375500 -119.670158 28,000 334 470 0
2019-10-07 15:45:00 GMT 36.365753 -119.664116 28,000 334 469 -64
2019-10-07 15:44:56 GMT 36.357239 -119.658737 28,000 334 469 -64
2019-10-07 15:44:51 GMT 36.347473 -119.652687 28,000 334 469 -64
2019-10-07 15:44:48 GMT 36.342590 -119.649635 28,000 334 469 -64
2019-10-07 15:44:44 GMT 36.335232 -119.645027 28,000 334 469 -64
2019-10-07 15:44:39 GMT 36.324944 -119.638657 28,000 334 469 0
2019-10-07 15:44:34 GMT 36.313446 -119.631470 28,000 334 469 0
2019-10-07 15:44:27 GMT 36.300522 -119.623428 28,000 334 468 64
2019-10-07 15:44:21 GMT 36.291615 -119.617912 28,000 334 467 64
2019-10-07 15:44:16 GMT 36.279228 -119.610199 28,000 334 467 -64
2019-10-07 15:44:13 GMT 36.273422 -119.606606 28,000 334 466 64
2019-10-07 15:44:04 GMT 36.256790 -119.596291 28,000 334 466 -64
2019-10-07 15:44:01 GMT 36.252182 -119.593369 28,000 334 466 0
2019-10-07 15:43:53 GMT 36.234924 -119.582687 28,000 334 466 -64
2019-10-07 15:43:50 GMT 36.230347 -119.579826 28,000 334 465 64
2019-10-07 15:43:41 GMT 36.191666 -119.555855 28,000 334 462 64
2019-10-07 15:43:30 GMT 36.191666 -119.555855 28,000 334 464 0
2019-10-07 15:43:25 GMT 36.180267 -119.548759 28,000 334 464 0
2019-10-07 15:43:18 GMT 36.170151 -119.542519 28,000 334 464 0
2019-10-07 15:43:15 GMT 36.162804 -119.538033 28,000 334 463 0
2019-10-07 15:43:09 GMT 36.144367 -119.526634 28,000 334 463 0
2019-10-07 15:43:06 GMT 36.144367 -119.526634 28,000 334 463 0
2019-10-07 15:43:02 GMT 36.136688 -119.521896 28,000 334 463 0
2019-10-07 15:42:58 GMT 36.129005 -119.517227 28,000 334 463 0
2019-10-07 15:42:53 GMT 36.121418 -119.512550 28,000 334 463 0
2019-10-07 15:42:48 GMT 36.110573 -119.505890 28,000 334 463 -64
2019-10-07 15:42:44 GMT 36.104828 -119.502357 28,000 334 463 -64
2019-10-07 15:42:40 GMT 36.096359 -119.497208 28,000 334 463 0
2019-10-07 15:42:37 GMT 36.088623 -119.492516 28,000 334 463 0
2019-10-07 15:42:33 GMT 36.080978 -119.487877 28,000 334 463 0
2019-10-07 15:42:26 GMT 36.067841 -119.479980 28,000 334 462 -64
2019-10-07 15:42:22 GMT 36.059875 -119.475204 28,000 335 462 128
2019-10-07 15:42:19 GMT 36.054062 -119.471741 28,000 333 462 0
2019-10-07 15:42:12 GMT 36.041611 -119.464249 28,000 334 461 0
2019-10-07 15:42:09 GMT 36.036987 -119.461388 28,000 334 461 0
2019-10-07 15:42:06 GMT 36.029388 -119.456635 28,000 333 462 0
2019-10-07 15:42:03 GMT 36.025543 -119.454231 28,000 334 461 0
2019-10-07 15:42:00 GMT 36.018303 -119.449730 28,000 334 462 0
2019-10-07 15:41:52 GMT 36.005222 -119.441841 28,000 335 462 0
2019-10-07 15:41:49 GMT 35.997589 -119.437401 28,000 335 462 0
2019-10-07 15:41:43 GMT 35.987347 -119.431557 28,000 336 463 0
2019-10-07 15:41:40 GMT 35.980087 -119.427505 28,000 336 463 0
2019-10-07 15:41:35 GMT 35.969330 -119.421623 28,000 337 463 0
2019-10-07 15:41:32 GMT 35.966583 -119.420128 28,000 337 463 -64
2019-10-07 15:41:29 GMT 35.959091 -119.416130 28,000 337 463 -64
2019-10-07 15:41:22 GMT 35.944798 -119.408882 28,000 339 465 64
2019-10-07 15:41:18 GMT 35.937973 -119.405594 28,000 340 465 0
2019-10-07 15:41:11 GMT 35.920944 -119.397987 28,000 341 465 0
2019-10-07 15:41:08 GMT 35.916496 -119.395966 28,000 341 465 0
2019-10-07 15:41:01 GMT 35.901226 -119.389191 28,000 341 465 0
2019-10-07 15:40:57 GMT 35.894119 -119.386024 28,000 341 465 0
2019-10-07 15:40:50 GMT 35.878693 -119.379158 28,000 341 465 -64
2019-10-07 15:40:46 GMT 35.872147 -119.376244 28,000 341 465 0
2019-10-07 15:40:41 GMT 35.860794 -119.371201 28,000 341 465 64
2019-10-07 15:40:38 GMT 35.856766 -119.369370 28,000 341 465 0
2019-10-07 15:40:35 GMT 35.849876 -119.366341 28,000 341 465 64
2019-10-07 15:40:31 GMT 35.840290 -119.362076 28,000 341 465 0
2019-10-07 15:40:28 GMT 35.835262 -119.359856 28,000 341 465 0
2019-10-07 15:40:24 GMT 35.826141 -119.355812 28,000 341 465 0
2019-10-07 15:40:18 GMT 35.813919 -119.350372 28,000 341 465 0
2019-10-07 15:40:11 GMT 35.801697 -119.344940 28,000 341 465 64
2019-10-07 15:40:07 GMT 35.791409 -119.340332 28,000 341 465 -64
2019-10-07 15:40:00 GMT 35.778419 -119.334602 28,000 341 466 0
2019-10-07 15:39:56 GMT 35.769482 -119.330635 28,000 341 466 64
2019-10-07 15:39:48 GMT 35.755325 -119.324341 28,000 341 466 0
2019-10-07 15:39:45 GMT 35.745975 -119.320175 28,000 341 466 0
2019-10-07 15:39:40 GMT 35.736942 -119.316139 28,000 341 466 0
2019-10-07 15:39:34 GMT 35.724380 -119.310555 28,000 341 466 0
2019-10-07 15:39:26 GMT 35.710266 -119.304337 28,000 341 466 64
2019-10-07 15:39:23 GMT 35.701538 -119.300423 28,000 341 466 0
2019-10-07 15:39:14 GMT 35.684418 -119.292870 28,000 341 466 0
2019-10-07 15:39:11 GMT 35.679127 -119.290543 28,000 341 466 0
2019-10-07 15:39:03 GMT 35.658371 -119.281364 28,000 341 468 64
2019-10-07 15:38:56 GMT 35.648960 -119.277222 28,000 341 470 64
2019-10-07 15:38:50 GMT 35.635880 -119.271439 28,000 341 469 0
2019-10-07 15:38:44 GMT 35.624817 -119.266548 28,000 341 469 64
2019-10-07 15:38:39 GMT 35.613953 -119.261795 28,000 341 469 64
2019-10-07 15:38:35 GMT 35.605179 -119.257912 28,000 341 466 0
2019-10-07 15:38:28 GMT 35.590954 -119.251625 28,000 341 464 0
2019-10-07 15:38:25 GMT 35.583694 -119.248413 28,000 341 460 0
2019-10-07 15:38:19 GMT 35.572998 -119.243713 28,000 341 459 0
2019-10-07 15:38:16 GMT 35.566002 -119.240578 28,000 341 459 0
2019-10-07 15:38:13 GMT 35.562187 -119.238884 28,000 341 457 0
2019-10-07 15:38:07 GMT 35.547707 -119.232513 28,000 341 455 -64
2019-10-07 15:37:57 GMT 35.528275 -119.223923 28,000 341 454 0
2019-10-07 15:37:54 GMT 35.522385 -119.221298 28,000 341 453 64
2019-10-07 15:37:45 GMT 35.504562 -119.213448 27,900 341 451 1216
2019-10-07 15:37:34 GMT 35.482681 -119.203773 27,675 341 451 1216
2019-10-07 15:37:25 GMT 35.465286 -119.196114 27,525 341 450 1088
2019-10-07 15:37:22 GMT 35.459702 -119.193649 27,475 341 450 1088
2019-10-07 15:37:14 GMT 35.445202 -119.187225 27,325 341 449 1024
2019-10-07 15:37:11 GMT 35.438599 -119.184319 27,225 341 449 1024
2019-10-07 15:37:03 GMT 35.413422 -119.173225 26,275 341 448 1088
2019-10-07 15:36:59 GMT 35.413422 -119.173225 27,050 341 447 1088
2019-10-07 15:36:50 GMT 35.396690 -119.165840 26,900 340 447 1152
2019-10-07 15:36:42 GMT 35.383072 -119.159775 26,750 340 446 1216
2019-10-07 15:36:39 GMT 35.375336 -119.156281 26,675 340 445 1344
2019-10-07 15:36:28 GMT 35.353638 -119.146561 26,400 340 445 1536
2019-10-07 15:36:20 GMT 35.341232 -119.141006 26,250 340 445 1472
2019-10-07 15:36:16 GMT 35.329983 -119.135979 26,125 340 446 1344
2019-10-07 15:36:09 GMT 35.319138 -119.131187 26,025 341 444 1088
2019-10-07 15:36:05 GMT 35.309032 -119.126862 25,925 341 444 960
2019-10-07 15:35:58 GMT 35.297882 -119.121841 25,850 338 435 256
2019-10-07 15:35:54 GMT 35.289505 -119.117889 25,850 338 437 256
2019-10-07 15:35:48 GMT 35.279068 -119.112625 25,825 337 434 256
2019-10-07 15:35:45 GMT 35.271698 -119.108734 25,800 336 430 384
2019-10-07 15:35:39 GMT 35.262062 -119.103424 25,725 335 426 768
2019-10-07 15:35:36 GMT 35.255127 -119.099403 25,700 334 424 1088
2019-10-07 15:35:32 GMT 35.248764 -119.095634 25,625 333 422 1344
2019-10-07 15:35:27 GMT 35.241257 -119.090942 25,525 333 421 1472
2019-10-07 15:35:21 GMT 35.229492 -119.083038 25,350 331 420 1664
2019-10-07 15:35:16 GMT 35.223190 -119.078690 25,250 331 420 1792
2019-10-07 15:35:13 GMT 35.218002 -119.075096 24,900 331 420 1856
2019-10-07 15:35:09 GMT 35.210541 -119.069878 25,000 331 420 1856
2019-10-07 15:35:06 GMT 35.205593 -119.066444 24,900 331 420 1920
2019-10-07 15:35:03 GMT 35.200008 -119.062614 24,800 331 420 2048
2019-10-07 15:35:00 GMT 35.194702 -119.058891 24,700 331 420 2112
2019-10-07 15:34:57 GMT 35.190559 -119.056030 24,400 331 420 2176
2019-10-07 15:34:53 GMT 35.182205 -119.050209 24,425 331 420 2048
2019-10-07 15:34:50 GMT 35.177105 -119.046707 24,175 331 420 1984
2019-10-07 15:34:47 GMT 35.173008 -119.043846 23,125 331 420 1664
2019-10-07 15:34:42 GMT 35.164818 -119.038177 24,100 331 420 1728
2019-10-07 15:34:35 GMT 35.152664 -119.029770 23,925 331 418 1600
2019-10-07 15:34:31 GMT 35.145916 -119.025078 23,825 331 417 1792
2019-10-07 15:34:28 GMT 35.133114 -119.016212 23,600 331 417 2112
2019-10-07 15:34:24 GMT 35.133114 -119.016212 23,600 331 417 2112
2019-10-07 15:34:21 GMT 35.129807 -119.013924 23,500 331 417 2176
2019-10-07 15:34:17 GMT 35.122696 -119.009010 23,375 331 417 1984
2019-10-07 15:34:13 GMT 35.116959 -119.005051 23,250 331 417 1792
2019-10-07 15:34:10 GMT 35.110703 -119.000710 23,150 331 417 1792
2019-10-07 15:34:06 GMT 35.103504 -118.995728 23,025 331 416 1664
2019-10-07 15:34:03 GMT 35.098198 -118.992004 22,925 331 415 1728
2019-10-07 15:33:59 GMT 35.092892 -118.988342 22,825 331 415 1728
2019-10-07 15:33:55 GMT 35.085800 -118.983444 22,700 331 414 1856
2019-10-07 15:33:52 GMT 35.074131 -118.975410 22,550 331 413 1856
2019-10-07 15:33:45 GMT 35.067810 -118.971001 21,275 331 412 1792
2019-10-07 15:33:41 GMT 35.061127 -118.966408 22,225 331 412 1856
2019-10-07 15:33:34 GMT 35.049507 -118.958359 21,275 331 410 1792
2019-10-07 15:33:28 GMT 35.039589 -118.951492 21,875 331 410 1728
2019-10-07 15:33:23 GMT 35.031418 -118.945892 21,725 331 409 1856
2019-10-07 15:33:17 GMT 35.021763 -118.939194 21,525 331 408 1984
2019-10-07 15:33:09 GMT 35.009937 -118.931068 21,200 331 407 1984
2019-10-07 15:33:06 GMT 35.003468 -118.926544 21,200 331 407 1984
2019-10-07 15:33:01 GMT 34.994614 -118.920502 21,000 331 406 1472
2019-10-07 15:32:57 GMT 34.988754 -118.916466 20,925 331 405 1536
2019-10-07 15:32:54 GMT 34.986008 -118.914558 20,875 331 405 1536
2019-10-07 15:32:49 GMT 34.977165 -118.908401 20,750 331 404 1344
2019-10-07 15:32:45 GMT 34.968979 -118.902786 20,650 331 404 1216
2019-10-07 15:32:38 GMT 34.959183 -118.896004 20,525 331 403 1152
2019-10-07 15:32:34 GMT 34.950806 -118.890289 20,425 331 402 1280
2019-10-07 15:32:29 GMT 34.942932 -118.884850 20,275 331 401 1472
2019-10-07 15:32:22 GMT 34.931637 -118.877045 20,150 331 401 1664
2019-10-07 15:32:18 GMT 34.925213 -118.872643 20,000 331 400 1920
2019-10-07 15:32:14 GMT 34.918137 -118.867722 19,875 331 401 2112
2019-10-07 15:32:10 GMT 34.913528 -118.864571 19,775 331 401 2112
2019-10-07 15:32:07 GMT 34.907055 -118.860107 19,650 331 402 1984
2019-10-07 15:32:01 GMT 34.899235 -118.854736 19,525 331 402 1728
2019-10-07 15:31:58 GMT 34.893814 -118.851051 19,400 331 402 1792
2019-10-07 15:31:54 GMT 34.888641 -118.847466 19,300 331 402 1792
2019-10-07 15:31:49 GMT 34.880722 -118.842026 19,200 331 402 1792
2019-10-07 15:31:45 GMT 34.866787 -118.832420 18,900 331 401 1664
2019-10-07 15:31:41 GMT 34.866787 -118.832420 18,875 331 401 1664
2019-10-07 15:31:35 GMT 34.857422 -118.825935 18,675 331 400 1536
2019-10-07 15:31:31 GMT 34.848999 -118.820168 18,600 331 400 1536
2019-10-07 15:31:28 GMT 34.845795 -118.817924 18,550 331 399 1664
2019-10-07 15:31:23 GMT 34.837090 -118.811935 18,425 331 399 1600
2019-10-07 15:31:20 GMT 34.831314 -118.807983 18,325 331 398 1600
2019-10-07 15:31:16 GMT 34.827118 -118.805084 18,125 331 396 1536
2019-10-07 15:31:12 GMT 34.819260 -118.799629 18,125 331 396 1536
2019-10-07 15:31:09 GMT 34.814651 -118.796478 18,050 331 396 1600
2019-10-07 15:31:03 GMT 34.803589 -118.788887 17,875 331 395 1344
2019-10-07 15:31:00 GMT 34.799652 -118.786201 17,825 331 394 1280
2019-10-07 15:30:57 GMT 34.796913 -118.784348 17,775 331 394 1408
2019-10-07 15:30:50 GMT 34.783768 -118.775322 17,575 331 391 1472
2019-10-07 15:30:46 GMT 34.779037 -118.772102 17,525 331 391 1408
2019-10-07 15:30:39 GMT 34.765770 -118.763062 17,325 331 389 1344
2019-10-07 15:30:35 GMT 34.761703 -118.760300 16,675 339 384 1344
2019-10-07 15:30:29 GMT 34.751633 -118.753464 17,100 331 386 1344
2019-10-07 15:30:26 GMT 34.746918 -118.750305 17,050 332 385 1472
2019-10-07 15:30:19 GMT 34.735512 -118.743385 16,825 337 384 1344
2019-10-07 15:30:16 GMT 34.729599 -118.740173 16,775 338 384 1344
2019-10-07 15:30:11 GMT 34.721684 -118.736343 16,675 339 384 1344
2019-10-07 15:30:07 GMT 34.711582 -118.732162 16,550 343 382 1408
2019-10-07 15:30:01 GMT 34.706451 -118.730316 16,475 345 381 1408
2019-10-07 15:29:58 GMT 34.701344 -118.728622 16,300 348 380 1792
2019-10-07 15:29:55 GMT 34.695103 -118.726898 16,275 349 381 1856
2019-10-07 15:29:51 GMT 34.689880 -118.725601 16,200 351 380 1856
2019-10-07 15:29:48 GMT 34.682190 -118.724091 16,075 351 380 1728
2019-10-07 15:29:44 GMT 34.676250 -118.722954 15,925 351 379 832
2019-10-07 15:29:40 GMT 34.670013 -118.721748 15,925 351 377 320
2019-10-07 15:29:37 GMT 34.663074 -118.720383 15,925 351 376 128
2019-10-07 15:29:33 GMT 34.657333 -118.719269 15,925 351 376 64
2019-10-07 15:29:29 GMT 34.651299 -118.718147 15,900 351 376 64
2019-10-07 15:29:26 GMT 34.645107 -118.716949 15,900 351 376 128
2019-10-07 15:29:23 GMT 34.638702 -118.715683 15,900 351 376 128
2019-10-07 15:29:19 GMT 34.633514 -118.714661 15,900 351 376 128
2019-10-07 15:29:16 GMT 34.627186 -118.713402 15,925 351 377 -320
2019-10-07 15:29:12 GMT 34.615128 -118.711029 15,950 351 377 -64
2019-10-07 15:29:09 GMT 34.615128 -118.711029 15,925 351 377 192
2019-10-07 15:29:01 GMT 34.595718 -118.707275 15,925 351 377 -192
2019-10-07 15:28:58 GMT 34.595718 -118.707275 15,925 352 377 -256
2019-10-07 15:28:51 GMT 34.584091 -118.705032 15,950 352 377 64
2019-10-07 15:28:48 GMT 34.581253 -118.704475 15,950 352 377 64
2019-10-07 15:28:44 GMT 34.572578 -118.702812 15,950 352 377 -128
2019-10-07 15:28:40 GMT 34.564636 -118.701332 15,950 351 376 384
2019-10-07 15:28:35 GMT 34.558102 -118.700066 15,925 351 375 576
2019-10-07 15:28:32 GMT 34.550606 -118.698631 15,900 351 376 128
2019-10-07 15:28:29 GMT 34.545364 -118.697578 15,925 351 376 -256
2019-10-07 15:28:26 GMT 34.540466 -118.696625 15,925 351 377 -384
2019-10-07 15:28:23 GMT 34.535290 -118.695541 15,950 351 377 -256
2019-10-07 15:28:19 GMT 34.530258 -118.694550 15,950 351 377 0
2019-10-07 15:28:16 GMT 34.517075 -118.691803 15,950 351 377 0
2019-10-07 15:28:12 GMT 34.517075 -118.691803 15,950 351 377 -128
2019-10-07 15:28:07 GMT 34.508789 -118.690125 15,950 351 376 -64
2019-10-07 15:28:03 GMT 34.503635 -118.689079 15,950 351 375 128
2019-10-07 15:28:00 GMT 34.496094 -118.687592 15,925 351 369 128
2019-10-07 15:27:57 GMT 34.490788 -118.686562 15,450 352 357 1728
2019-10-07 15:27:53 GMT 34.485992 -118.685646 15,900 352 364 640
2019-10-07 15:27:49 GMT 34.477379 -118.683990 15,775 352 361 1344
2019-10-07 15:27:41 GMT 34.464157 -118.681580 15,650 352 359 1600
2019-10-07 15:27:38 GMT 34.460247 -118.680840 15,525 350 341 640
2019-10-07 15:27:35 GMT 34.456291 -118.680099 15,525 350 341 640
2019-10-07 15:27:32 GMT 34.449772 -118.678894 15,350 352 355 1664
2019-10-07 15:27:28 GMT 34.443604 -118.677681 15,325 349 344 704
2019-10-07 15:27:25 GMT 34.432663 -118.675323 15,175 350 352 1472
2019-10-07 15:27:22 GMT 34.432663 -118.675323 15,100 350 351 1280
2019-10-07 15:27:19 GMT 34.428818 -118.674431 15,075 349 349 1088
2019-10-07 15:27:15 GMT 34.422455 -118.672913 15,000 349 346 768
2019-10-07 15:27:08 GMT 34.412113 -118.670486 14,925 350 340 640
2019-10-07 15:27:04 GMT 34.406387 -118.669159 14,900 350 337 704
2019-10-07 15:27:01 GMT 34.402039 -118.668205 14,850 350 335 896
2019-10-07 15:26:58 GMT 34.395996 -118.666801 14,775 350 331 1344
2019-10-07 15:26:54 GMT 34.389221 -118.665291 14,650 350 329 1920
2019-10-07 15:26:51 GMT 34.386200 -118.664619 14,400 350 329 2496
2019-10-07 15:26:47 GMT 34.380505 -118.663383 14,425 350 328 2496
2019-10-07 15:26:44 GMT 34.374847 -118.662094 14,300 350 329 2560
2019-10-07 15:26:41 GMT 34.369995 -118.661087 14,125 350 329 2240
2019-10-07 15:26:38 GMT 34.366074 -118.660187 14,025 350 329 2240
2019-10-07 15:26:34 GMT 34.360626 -118.659042 13,925 350 329 1984
2019-10-07 15:26:31 GMT 34.357910 -118.658394 13,850 350 329 1920
2019-10-07 15:26:28 GMT 34.350945 -118.656860 13,725 350 329 1792
2019-10-07 15:26:25 GMT 34.347359 -118.656059 13,650 350 330 1792
2019-10-07 15:26:22 GMT 34.341866 -118.654861 13,550 350 328 1536
2019-10-07 15:26:15 GMT 34.331406 -118.652512 13,400 350 324 1344
2019-10-07 15:26:11 GMT 34.326454 -118.651428 13,300 350 321 1600
2019-10-07 15:26:08 GMT 34.320877 -118.650101 13,200 350 319 1856
2019-10-07 15:26:05 GMT 34.317993 -118.649483 13,125 350 319 1920
2019-10-07 15:26:02 GMT 34.312397 -118.648170 13,000 349 317 2048
2019-10-07 15:25:59 GMT 34.310349 -118.647690 12,950 349 317 2112
2019-10-07 15:25:56 GMT 34.303986 -118.646179 12,800 349 317 2304
2019-10-07 15:25:51 GMT 34.296150 -118.644333 12,575 349 316 2432
2019-10-07 15:25:48 GMT 34.294380 -118.643875 12,525 349 316 2368
2019-10-07 15:25:44 GMT 34.287186 -118.642143 12,350 349 315 1920
2019-10-07 15:25:38 GMT 34.279392 -118.640266 12,200 349 313 1600
2019-10-07 15:25:34 GMT 34.272083 -118.638496 12,050 349 309 1600
2019-10-07 15:25:30 GMT 34.267941 -118.637527 11,950 351 308 1856
2019-10-07 15:25:27 GMT 34.262260 -118.636497 11,825 352 308 2112
2019-10-07 15:25:23 GMT 34.256676 -118.635803 11,100 358 307 2624
2019-10-07 15:25:20 GMT 34.252396 -118.635529 11,550 358 307 2624
2019-10-07 15:25:16 GMT 34.247456 -118.635292 11,450 359 307 2624
2019-10-07 15:25:11 GMT 34.239212 -118.635361 11,125 1 308 2752
2019-10-07 15:25:08 GMT 34.236004 -118.635468 11,025 2 308 2688
2019-10-07 15:25:05 GMT 34.230885 -118.635979 10,875 8 308 2816
2019-10-07 15:25:02 GMT 34.226788 -118.636604 10,675 10 308 2816
2019-10-07 15:24:59 GMT 34.223099 -118.637375 10,600 10 309 2752
2019-10-07 15:24:56 GMT 34.218567 -118.638443 10,475 10 309 2624
2019-10-07 15:24:50 GMT 34.210007 -118.640465 10,225 11 308 2240
2019-10-07 15:24:47 GMT 34.207718 -118.640968 10,175 10 307 2048
2019-10-07 15:24:43 GMT 34.200485 -118.642647 10,025 10 304 1472
2019-10-07 15:24:40 GMT 34.196949 -118.643478 9,975 10 302 1408
2019-10-07 15:24:37 GMT 34.193253 -118.644325 9,875 10 300 1472
2019-10-07 15:24:34 GMT 34.189129 -118.645309 9,825 11 297 1536
2019-10-07 15:24:31 GMT 34.185150 -118.646233 9,675 11 295 1536
2019-10-07 15:24:27 GMT 34.179703 -118.647522 9,125 11 286 2624
2019-10-07 15:24:24 GMT 34.174347 -118.648758 9,500 10 290 1792
2019-10-07 15:24:20 GMT 34.170925 -118.649597 9,425 11 287 2240
2019-10-07 15:24:17 GMT 34.161987 -118.651711 9,175 11 286 2944
2019-10-07 15:24:10 GMT 34.155991 -118.653130 8,875 11 287 3648
2019-10-07 15:24:06 GMT 34.151230 -118.654305 8,650 11 289 3840
2019-10-07 15:24:02 GMT 34.146858 -118.655319 8,450 11 291 3776
2019-10-07 15:23:59 GMT 34.141365 -118.656693 8,225 11 293 3008
2019-10-07 15:23:56 GMT 34.138153 -118.657433 8,125 11 293 2432
2019-10-07 15:23:53 GMT 34.129852 -118.659409 8,025 11 291 1472
2019-10-07 15:23:50 GMT 34.129852 -118.659409 7,975 11 290 960
2019-10-07 15:23:43 GMT 34.118416 -118.662125 7,900 11 289 384
2019-10-07 15:23:40 GMT 34.118416 -118.662125 7,900 11 289 384
2019-10-07 15:23:37 GMT 34.113667 -118.663277 7,900 11 290 -256
2019-10-07 15:23:34 GMT 34.108612 -118.664505 7,875 11 290 -192
2019-10-07 15:23:31 GMT 34.104633 -118.665504 7,900 11 290 -256
2019-10-07 15:23:27 GMT 34.095604 -118.667679 7,925 10 289 -64
2019-10-07 15:23:21 GMT 34.092999 -118.668251 7,925 9 290 64
2019-10-07 15:23:18 GMT 34.088108 -118.669167 7,900 8 289 128
2019-10-07 15:23:13 GMT 34.082016 -118.670227 7,900 7 290 64
2019-10-07 15:23:10 GMT 34.076660 -118.671005 7,900 6 290 64
2019-10-07 15:23:07 GMT 34.073410 -118.671516 7,900 5 290 -128
2019-10-07 15:23:02 GMT 34.067207 -118.672318 7,925 4 290 -128
2019-10-07 15:22:59 GMT 34.062366 -118.672829 7,925 3 290 -128
2019-10-07 15:22:54 GMT 34.056702 -118.673248 7,925 3 290 64
2019-10-07 15:22:49 GMT 34.050076 -118.673798 7,925 3 290 192
2019-10-07 15:22:46 GMT 34.045609 -118.674149 7,925 3 290 128
2019-10-07 15:22:43 GMT 34.040207 -118.674606 7,925 3 290 0
2019-10-07 15:22:40 GMT 34.037201 -118.674873 7,925 3 290 128
2019-10-07 15:22:36 GMT 34.031799 -118.675323 7,900 3 289 320
2019-10-07 15:22:33 GMT 34.027218 -118.675629 7,900 2 290 128
2019-10-07 15:22:30 GMT 34.025078 -118.675804 7,900 2 290 64
2019-10-07 15:22:27 GMT 34.016838 -118.676262 7,900 1 290 256
2019-10-07 15:22:21 GMT 34.007622 -118.676315 7,875 359 291 -128
2019-10-07 15:22:17 GMT 34.007622 -118.676315 7,875 358 291 -192
2019-10-07 15:22:14 GMT 34.002960 -118.675995 7,900 355 291 128
2019-10-07 15:22:11 GMT 33.997845 -118.675232 7,825 353 289 1024
2019-10-07 15:22:08 GMT 33.993851 -118.674370 7,775 348 289 1280
2019-10-07 15:22:04 GMT 33.989372 -118.672890 7,700 340 288 1088
2019-10-07 15:22:01 GMT 33.984344 -118.670486 7,575 331 287 2112
2019-10-07 15:21:57 GMT 33.979843 -118.667648 7,600 333 288 1088
2019-10-07 15:21:53 GMT 33.976044 -118.665123 7,450 331 287 2048
2019-10-07 15:21:50 GMT 33.971878 -118.662376 7,325 331 285 2624
2019-10-07 15:21:46 GMT 33.963348 -118.656578 6,850 331 285 3456
2019-10-07 15:21:42 GMT 33.963348 -118.656578 6,925 331 286 3584
2019-10-07 15:21:39 GMT 33.959995 -118.654228 6,750 329 287 2944
2019-10-07 15:21:35 GMT 33.955353 -118.650719 6,575 323 286 2688
2019-10-07 15:21:32 GMT 33.952084 -118.647652 6,425 320 286 2688
2019-10-07 15:21:28 GMT 33.948544 -118.643700 6,250 314 285 2880
2019-10-07 15:21:25 GMT 33.946358 -118.640839 6,125 310 285 2880
2019-10-07 15:21:22 GMT 33.941704 -118.633057 5,950 304 285 2816
2019-10-07 15:21:19 GMT 33.941704 -118.633057 5,775 299 285 2496
2019-10-07 15:21:16 GMT 33.938862 -118.626938 5,675 296 284 2304
2019-10-07 15:21:12 GMT 33.937557 -118.623505 5,500 290 283 2368
2019-10-07 15:21:09 GMT 33.936310 -118.618996 5,525 288 282 2432
2019-10-07 15:21:06 GMT 33.935417 -118.614410 5,350 280 280 2560
2019-10-07 15:21:03 GMT 33.934845 -118.608513 5,100 270 279 2688
2019-10-07 15:21:00 GMT 33.934811 -118.603874 5,050 269 278 2688
2019-10-07 15:20:57 GMT 33.935577 -118.591805 4,625 264 260 2368
2019-10-07 15:20:53 GMT 33.935577 -118.591805 4,750 265 275 2624
2019-10-07 15:20:50 GMT 33.935837 -118.588425 4,600 265 274 2432
2019-10-07 15:20:46 GMT 33.936348 -118.581673 4,450 265 272 2112
2019-10-07 15:20:43 GMT 33.936626 -118.578011 4,350 265 270 2048
2019-10-07 15:20:40 GMT 33.936996 -118.572807 4,225 265 268 2112
2019-10-07 15:20:35 GMT 33.937546 -118.566360 3,900 265 260 0
2019-10-07 15:20:32 GMT 33.937958 -118.561592 3,900 265 262 2368
2019-10-07 15:20:29 GMT 33.938305 -118.557182 3,825 265 261 2496
2019-10-07 15:20:25 GMT 33.938965 -118.549881 3,475 269 232 2240
2019-10-07 15:20:22 GMT 33.939331 -118.545845 3,400 264 255 2176
2019-10-07 15:20:19 GMT 33.939651 -118.542427 3,425 264 255 2176
2019-10-07 15:20:14 GMT 33.940258 -118.535896 2,800 264 247 1920
2019-10-07 15:20:11 GMT 33.940723 -118.530807 3,100 264 249 1984
2019-10-07 15:20:08 GMT 33.941071 -118.527176 3,050 264 247 1920
2019-10-07 15:20:03 GMT 33.941620 -118.520676 2,825 265 244 1984
2019-10-07 15:19:58 GMT 33.942120 -118.513298 2,725 267 237 1856
2019-10-07 15:19:52 GMT 33.942493 -118.504890 2,425 269 232 2240
2019-10-07 15:19:49 GMT 33.942581 -118.501564 2,400 270 231 2240
2019-10-07 15:19:40 GMT 33.942673 -118.490685 2,125 269 213 1536
2019-10-07 15:19:36 GMT 33.942726 -118.486465 2,050 269 219 1152
2019-10-07 15:19:28 GMT 33.942902 -118.476227 1,900 269 210 1536
2019-10-07 15:19:25 GMT 33.942993 -118.473763 1,800 267 205 1088
2019-10-07 15:19:20 GMT 33.943497 -118.466583 1,750 264 191 448
2019-10-07 15:19:17 GMT 33.943981 -118.461800 1,700 263 179 1088
2019-10-07 15:19:09 GMT 33.944729 -118.455505 1,575 263 171 960
2019-10-07 15:19:03 GMT 33.945194 -118.451042 1,500 263 165 1216
2019-10-07 15:18:58 GMT 33.945751 -118.445374 1,300 264 156 1856
2019-10-07 15:18:55 GMT 33.945969 -118.443153 1,225 264 153 1984
2019-10-07 15:18:47 GMT 33.946609 -118.436707 950 264 149 2048
2019-10-07 15:18:44 GMT 33.946869 -118.433876 850 264 148 2304
2019-10-07 15:18:37 GMT 33.947708 -118.425636 425 264 149 2944
2019-10-07 15:18:33 GMT 33.947708 -118.425636 375 264 150 2880
2019-10-07 15:18:24 GMT 33.948441 -118.418663 75 263 153 896
2019-10-07 15:18:13 GMT 33.949337 -118.409904 75 263 114 0
2019-10-07 15:18:02 GMT 33.949944 -118.404182 75 264 77 64
2019-10-07 15:17:51 GMT 33.950222 -118.401505 0 264 15
2019-10-07 15:17:40 GMT 33.950260 -118.400864 0 292 8
2019-10-07 15:17:28 GMT 33.949860 -118.400627 0 2 14
2019-10-07 15:17:18 GMT 33.949303 -118.400818 0 47 12
2019-10-07 15:17:07 GMT 33.949104 -118.401558 0 84 12
2019-10-07 15:16:45 GMT 33.949070 -118.401932 0 81 0
2019-10-07 15:16:33 GMT 33.949059 -118.402107 0 81 5
2019-10-07 15:16:22 GMT 33.949036 -118.402321 0 84 4
2019-10-07 15:16:11 GMT 33.949001 -118.402573 0 81 6
2019-10-07 15:15:55 GMT 33.948898 -118.403542 0 84 14
2019-10-07 15:15:49 GMT 33.948860 -118.403961 0 84 14
2019-10-07 15:15:38 GMT 33.948605 -118.405807 0 345 11
2019-10-07 15:15:27 GMT 33.948605 -118.405807 0 50 11
2019-10-07 15:15:18 GMT 33.948200 -118.405968 0 345 11
2019-10-07 15:15:15 GMT 33.948128 -118.405937 0 343 11
2019-10-07 15:15:04 GMT 33.947571 -118.405655 0 337 10
2019-10-07 15:14:59 GMT 33.947388 -118.405571 0 348 6
2019-10-07 15:14:30 GMT 33.947250 -118.405540 0 354 0
2019-10-07 15:14:23 GMT 33.947239 -118.405540 0 354 0
2019-10-07 15:14:14 GMT 33.947243 -118.405540 0 354 0

Making use of Plane Finder data

You are free to use the raw flight data, aircraft information and images provided in this report for your own purposes provided the data is correctly attributed to Plane Finder. We ask that you please credit Plane Finder and link to planefinder.net in close proximity to the content.

Optionally one of the following logos (no smaller then 150x24px) can be used and must link to planefinder.net

Embedding the Plane Finder map

You are welcome to embed the Plane Finder playback map on your website to offer visitors a more interactive experience. We suggest using the following HTML code:

<iframe src="//planefinder.net/data/report/DL5703-N624CZ-7700-squawk-2019-10-07/map" width="800" height="600" seamless="seamless"></iframe>

Where our data comes from

Plane Finder has a global network of data feeds and antenna radars that receive data broadcast directly from aircraft. The primary technologies used are ADS-B and MLAT. We also show feeds from the FAA and a FLARM glider feed.

Click here to find out more about the Plane Finder network.

How we collect our data